DLH453 KLAX-EDDM
Flight info
| Callsign | DLH453 |
|---|---|
| Flight time | N/A |
| Altitude | 33000 |
| Route | OSHNN1 BEALE Q842 PICHO/N0497F340 Q842 PATIO DCT PIH/N0499F350 DCT KU81O DCT KU03Q DCT KU15S DCT DURUR DCT 55N100W 60N090W 6330N08000W/N0500F370 66N070W/M085F370 DCT CANEL DCT 70N050W 7030N04000W 70N030W 6830N02000W 66N010W DCT GUNPA/N0482F390 DCT MITSI P619 BAVTA P992 ATTUS DCT ELSOB DCT ABGUS DCT SODRO/N0448F310 T703 LULAR/N0441F300 T105 LANDU LULAR2C |
| Aircraft | A388/J-SADE2E3FGHIJ3J4J5M1RWXY/LB1D1 |
Departure
| Time | 2026-04-22 21:40 |
|---|---|
| Airport | Los Angeles International Airport (KLAX) |
Arrival
| Time | N/A |
|---|---|
| Airport | Munich Airport (EDDM) |
| Time | Latitude | Longitude | Altitude | Speed | Heading |
|---|---|---|---|---|---|
| 2026-04-22 20:55 | 33.94372 | -118.41424 | 99 ft | 0 kts | 263° |
| 2026-04-22 20:57 | 33.94371 | -118.41433 | 103 ft | 0 kts | 263° |
| 2026-04-22 21:24 | 33.94373 | -118.41420 | 101 ft | 4 kts | 263° |
| 2026-04-22 21:24 | 33.94376 | -118.41388 | 97 ft | 4 kts | 263° |
| 2026-04-22 21:24 | 33.94378 | -118.41363 | 98 ft | 4 kts | 278° |
| 2026-04-22 21:25 | 33.94367 | -118.41338 | 99 ft | 4 kts | 335° |
| 2026-04-22 21:25 | 33.94347 | -118.41332 | 97 ft | 4 kts | 353° |
| 2026-04-22 21:25 | 33.94320 | -118.41329 | 99 ft | 3 kts | 353° |
| 2026-04-22 21:25 | 33.94317 | -118.41328 | 99 ft | 0 kts | 353° |
| 2026-04-22 21:30 | 33.94322 | -118.41329 | 99 ft | 2 kts | 353° |
| 2026-04-22 21:30 | 33.94351 | -118.41333 | 97 ft | 6 kts | 353° |
| 2026-04-22 21:30 | 33.94396 | -118.41340 | 100 ft | 7 kts | 353° |
| 2026-04-22 21:30 | 33.94446 | -118.41347 | 100 ft | 8 kts | 353° |
| 2026-04-22 21:31 | 33.94500 | -118.41355 | 101 ft | 8 kts | 353° |
| 2026-04-22 21:31 | 33.94559 | -118.41364 | 101 ft | 9 kts | 353° |
| 2026-04-22 21:31 | 33.94620 | -118.41374 | 102 ft | 9 kts | 353° |
| 2026-04-22 21:31 | 33.94681 | -118.41383 | 102 ft | 9 kts | 353° |
| 2026-04-22 21:32 | 33.94735 | -118.41389 | 103 ft | 6 kts | 8° |
| 2026-04-22 21:32 | 33.94765 | -118.41371 | 105 ft | 4 kts | 47° |
| 2026-04-22 21:32 | 33.94781 | -118.41343 | 105 ft | 4 kts | 67° |
| 2026-04-22 21:32 | 33.94790 | -118.41306 | 106 ft | 5 kts | 80° |
| 2026-04-22 21:33 | 33.94797 | -118.41256 | 105 ft | 7 kts | 82° |
| 2026-04-22 21:33 | 33.94804 | -118.41186 | 108 ft | 10 kts | 84° |
| 2026-04-22 21:33 | 33.94811 | -118.41097 | 105 ft | 12 kts | 84° |
| 2026-04-22 21:33 | 33.94823 | -118.40983 | 106 ft | 15 kts | 82° |
| 2026-04-22 21:34 | 33.94839 | -118.40842 | 105 ft | 19 kts | 85° |
| 2026-04-22 21:34 | 33.94856 | -118.40674 | 105 ft | 21 kts | 83° |
| 2026-04-22 21:34 | 33.94872 | -118.40519 | 106 ft | 12 kts | 83° |
| 2026-04-22 21:34 | 33.94875 | -118.40491 | 107 ft | 0 kts | 83° |
| 2026-04-22 21:35 | 33.94875 | -118.40485 | 107 ft | 2 kts | 83° |
| 2026-04-22 21:35 | 33.94878 | -118.40464 | 107 ft | 4 kts | 83° |
| 2026-04-22 21:36 | 33.94882 | -118.40425 | 106 ft | 6 kts | 83° |
| 2026-04-22 21:36 | 33.94888 | -118.40365 | 106 ft | 8 kts | 83° |
| 2026-04-22 21:36 | 33.94896 | -118.40284 | 106 ft | 11 kts | 83° |
| 2026-04-22 21:36 | 33.94907 | -118.40181 | 106 ft | 14 kts | 83° |
| 2026-04-22 21:37 | 33.94920 | -118.40046 | 106 ft | 18 kts | 84° |
| 2026-04-22 21:37 | 33.94925 | -118.39992 | 104 ft | 0 kts | 78° |
| 2026-04-22 21:37 | 33.94927 | -118.39982 | 104 ft | 2 kts | 76° |
| 2026-04-22 21:37 | 33.94933 | -118.39961 | 106 ft | 2 kts | 64° |
| 2026-04-22 21:38 | 33.94935 | -118.39956 | 106 ft | 0 kts | 60° |
| 2026-04-22 21:38 | 33.94963 | -118.39927 | 109 ft | 5 kts | 20° |
| 2026-04-22 21:38 | 33.94993 | -118.39922 | 110 ft | 7 kts | 353° |
| 2026-04-22 21:39 | 33.95022 | -118.39940 | 112 ft | 4 kts | 295° |
| 2026-04-22 21:39 | 33.95035 | -118.40024 | 111 ft | 17 kts | 265° |
| 2026-04-22 21:39 | 33.95002 | -118.40318 | 113 ft | 65 kts | 264° |
| 2026-04-22 21:39 | 33.94921 | -118.41102 | 113 ft | 123 kts | 263° |
| 2026-04-22 21:40 | 33.94801 | -118.42294 | 141 ft | 157 kts | 263° |
| 2026-04-22 21:40 | 33.94672 | -118.43583 | 687 ft | 148 kts | 262° |
| 2026-04-22 21:40 | 33.94558 | -118.44746 | 1560 ft | 134 kts | 262° |
| 2026-04-22 21:40 | 33.94442 | -118.45906 | 1940 ft | 148 kts | 262° |
| 2026-04-22 21:41 | 33.94335 | -118.47187 | 2209 ft | 163 kts | 267° |
| 2026-04-22 21:41 | 33.94298 | -118.48609 | 2423 ft | 177 kts | 268° |
| 2026-04-22 21:41 | 33.94257 | -118.50178 | 2490 ft | 192 kts | 268° |
| 2026-04-22 21:41 | 33.94162 | -118.51827 | 2587 ft | 204 kts | 264° |
| 2026-04-22 21:42 | 33.94015 | -118.53635 | 2795 ft | 224 kts | 265° |
| 2026-04-22 21:42 | 33.93857 | -118.55578 | 3017 ft | 244 kts | 265° |
| 2026-04-22 21:42 | 33.93684 | -118.57647 | 3402 ft | 257 kts | 264° |
| 2026-04-22 21:42 | 33.93419 | -118.59803 | 3919 ft | 264 kts | 262° |
| 2026-04-22 21:43 | 33.93039 | -118.61995 | 4610 ft | 265 kts | 254° |
| 2026-04-22 21:43 | 33.92190 | -118.63958 | 4957 ft | 273 kts | 232° |
| 2026-04-22 21:43 | 33.90666 | -118.65349 | 4992 ft | 276 kts | 205° |
| 2026-04-22 21:43 | 33.88811 | -118.65775 | 4995 ft | 277 kts | 178° |
| 2026-04-22 21:44 | 33.86932 | -118.65258 | 4996 ft | 279 kts | 162° |
| 2026-04-22 21:44 | 33.85092 | -118.64507 | 5107 ft | 282 kts | 168° |
| 2026-04-22 21:44 | 33.83154 | -118.64401 | 5652 ft | 279 kts | 190° |
| 2026-04-22 21:44 | 33.81212 | -118.64768 | 6306 ft | 281 kts | 191° |
| 2026-04-22 21:45 | 33.79263 | -118.65128 | 6918 ft | 285 kts | 191° |
| 2026-04-22 21:45 | 33.77304 | -118.65481 | 7552 ft | 286 kts | 192° |
| 2026-04-22 21:45 | 33.75324 | -118.65823 | 8207 ft | 287 kts | 191° |
| 2026-04-22 21:45 | 33.73317 | -118.65741 | 8825 ft | 296 kts | 168° |
| 2026-04-22 21:46 | 33.71446 | -118.64638 | 9429 ft | 305 kts | 143° |
| 2026-04-22 21:46 | 33.70081 | -118.62688 | 10008 ft | 313 kts | 118° |
| 2026-04-22 21:46 | 33.69334 | -118.60227 | 10312 ft | 327 kts | 105° |
| 2026-04-22 21:46 | 33.68920 | -118.57474 | 10463 ft | 343 kts | 92° |
| 2026-04-22 21:47 | 33.68953 | -118.54545 | 10613 ft | 358 kts | 88° |
| 2026-04-22 21:47 | 33.68864 | -118.51498 | 10883 ft | 369 kts | 96° |
| 2026-04-22 21:47 | 33.68523 | -118.48433 | 11332 ft | 373 kts | 100° |
| 2026-04-22 21:47 | 33.67884 | -118.45454 | 11786 ft | 377 kts | 109° |
| 2026-04-22 21:48 | 33.67006 | -118.42462 | 12248 ft | 381 kts | 111° |
| 2026-04-22 21:48 | 33.66084 | -118.39521 | 12714 ft | 385 kts | 112° |
| 2026-04-22 21:48 | 33.65160 | -118.36481 | 13176 ft | 389 kts | 108° |
| 2026-04-22 21:48 | 33.64571 | -118.33291 | 13644 ft | 394 kts | 97° |
| 2026-04-22 21:49 | 33.64427 | -118.29987 | 14088 ft | 398 kts | 89° |
| 2026-04-22 21:49 | 33.64459 | -118.26641 | 14497 ft | 402 kts | 89° |
| 2026-04-22 21:49 | 33.64468 | -118.23276 | 14913 ft | 406 kts | 89° |
| 2026-04-22 21:49 | 33.64716 | -118.19982 | 15295 ft | 407 kts | 74° |
| 2026-04-22 21:50 | 33.65783 | -118.16791 | 15704 ft | 405 kts | 55° |
| 2026-04-22 21:50 | 33.67552 | -118.14197 | 16068 ft | 399 kts | 36° |
| 2026-04-22 21:50 | 33.69796 | -118.12269 | 16482 ft | 395 kts | 25° |
| 2026-04-22 21:50 | 33.72151 | -118.10555 | 16900 ft | 398 kts | 25° |
| 2026-04-22 21:51 | 33.74468 | -118.08785 | 17328 ft | 402 kts | 27° |
| 2026-04-22 21:51 | 33.76797 | -118.06865 | 17730 ft | 407 kts | 29° |
| 2026-04-22 21:51 | 33.79122 | -118.04844 | 18159 ft | 410 kts | 30° |
| 2026-04-22 21:52 | 33.83713 | -118.00731 | 18889 ft | 417 kts | 30° |
| 2026-04-22 21:52 | 33.86041 | -117.98631 | 19245 ft | 419 kts | 31° |
| 2026-04-22 21:52 | 33.88355 | -117.96543 | 19582 ft | 422 kts | 31° |
| 2026-04-22 21:52 | 33.90724 | -117.94407 | 19931 ft | 424 kts | 31° |
| 2026-04-22 21:53 | 33.93101 | -117.92252 | 20274 ft | 427 kts | 31° |
| 2026-04-22 21:53 | 33.95493 | -117.90063 | 20614 ft | 430 kts | 31° |
| 2026-04-22 21:53 | 33.97845 | -117.87907 | 20956 ft | 432 kts | 31° |
| 2026-04-22 21:53 | 34.00282 | -117.85674 | 21288 ft | 435 kts | 31° |
| 2026-04-22 21:54 | 34.02676 | -117.83480 | 21630 ft | 438 kts | 31° |
| 2026-04-22 21:54 | 34.05107 | -117.81252 | 21928 ft | 441 kts | 31° |
| 2026-04-22 21:54 | 34.07541 | -117.79004 | 22264 ft | 444 kts | 33° |
| 2026-04-22 21:54 | 34.09801 | -117.76451 | 22575 ft | 453 kts | 43° |
| 2026-04-22 21:55 | 34.11828 | -117.73493 | 22880 ft | 458 kts | 47° |
| 2026-04-22 21:55 | 34.13833 | -117.70486 | 23199 ft | 460 kts | 46° |
| 2026-04-22 21:55 | 34.15856 | -117.67486 | 23516 ft | 463 kts | 46° |
| 2026-04-22 21:55 | 34.17902 | -117.64458 | 23824 ft | 465 kts | 46° |
| 2026-04-22 21:56 | 34.19941 | -117.61434 | 24115 ft | 467 kts | 46° |
| 2026-04-22 21:56 | 34.22004 | -117.58368 | 24437 ft | 469 kts | 46° |
| 2026-04-22 21:56 | 34.24052 | -117.55323 | 24679 ft | 471 kts | 46° |
| 2026-04-22 21:56 | 34.26125 | -117.52235 | 24963 ft | 473 kts | 46° |
| 2026-04-22 21:57 | 34.28200 | -117.49143 | 25229 ft | 474 kts | 46° |
| 2026-04-22 21:57 | 34.30283 | -117.46037 | 25531 ft | 476 kts | 46° |
| 2026-04-22 21:57 | 34.32383 | -117.42901 | 25792 ft | 479 kts | 46° |
| 2026-04-22 21:57 | 34.34469 | -117.39783 | 26115 ft | 480 kts | 46° |
| 2026-04-22 21:58 | 34.36587 | -117.36613 | 26421 ft | 483 kts | 46° |
| 2026-04-22 21:58 | 34.38701 | -117.33448 | 26727 ft | 485 kts | 46° |
| 2026-04-22 21:58 | 34.40830 | -117.30256 | 27046 ft | 488 kts | 46° |
| 2026-04-22 21:58 | 34.42961 | -117.27060 | 27378 ft | 490 kts | 46° |
| 2026-04-22 21:59 | 34.45109 | -117.23834 | 27707 ft | 492 kts | 46° |
| 2026-04-22 21:59 | 34.47260 | -117.20601 | 28023 ft | 495 kts | 46° |
| 2026-04-22 21:59 | 34.49395 | -117.17389 | 28341 ft | 497 kts | 46° |
| 2026-04-22 21:59 | 34.51564 | -117.14124 | 28656 ft | 500 kts | 46° |
| 2026-04-22 22:00 | 34.53751 | -117.10829 | 28967 ft | 503 kts | 46° |
| 2026-04-22 22:00 | 34.55966 | -117.07515 | 29345 ft | 504 kts | 45° |
| 2026-04-22 22:00 | 34.58221 | -117.04234 | 29619 ft | 507 kts | 45° |
| 2026-04-22 22:00 | 34.60488 | -117.00960 | 29946 ft | 509 kts | 45° |
| 2026-04-22 22:01 | 34.62777 | -116.97646 | 30228 ft | 512 kts | 45° |
| 2026-04-22 22:01 | 34.65062 | -116.94325 | 30477 ft | 515 kts | 45° |
| 2026-04-22 22:01 | 34.67369 | -116.90959 | 30782 ft | 518 kts | 45° |
| 2026-04-22 22:01 | 34.69671 | -116.87595 | 31055 ft | 520 kts | 45° |
| 2026-04-22 22:02 | 34.71990 | -116.84202 | 31333 ft | 523 kts | 45° |
| 2026-04-22 22:02 | 34.74323 | -116.80786 | 31589 ft | 526 kts | 45° |
| 2026-04-22 22:02 | 34.76662 | -116.77356 | 31863 ft | 529 kts | 45° |
| 2026-04-22 22:02 | 34.79008 | -116.73913 | 32144 ft | 531 kts | 45° |
| 2026-04-22 22:03 | 34.81342 | -116.70483 | 32391 ft | 534 kts | 45° |
| 2026-04-22 22:03 | 34.83725 | -116.66980 | 32652 ft | 536 kts | 45° |
| 2026-04-22 22:03 | 34.85333 | -116.64613 | 32816 ft | 538 kts | 45° |
| 2026-04-22 22:04 | 34.91117 | -116.56716 | 32858 ft | 537 kts | 41° |
| 2026-04-22 22:04 | 34.96204 | -116.50042 | 32841 ft | 537 kts | 42° |
| 2026-04-22 22:05 | 35.00398 | -116.44455 | 32839 ft | 538 kts | 42° |
| 2026-04-22 22:05 | 35.05440 | -116.37693 | 32837 ft | 539 kts | 42° |
| 2026-04-22 22:06 | 35.10477 | -116.30915 | 32837 ft | 539 kts | 43° |
| 2026-04-22 22:06 | 35.15523 | -116.24116 | 32838 ft | 539 kts | 43° |
| 2026-04-22 22:07 | 35.20551 | -116.17326 | 32835 ft | 538 kts | 43° |
| 2026-04-22 22:07 | 35.25586 | -116.10515 | 32838 ft | 540 kts | 43° |
| 2026-04-22 22:08 | 35.30618 | -116.03695 | 32843 ft | 540 kts | 43° |
| 2026-04-22 22:08 | 35.35632 | -115.96884 | 32852 ft | 541 kts | 43° |
| 2026-04-22 22:09 | 35.40672 | -115.90024 | 32858 ft | 542 kts | 43° |
| 2026-04-22 22:09 | 35.45721 | -115.83140 | 32864 ft | 543 kts | 43° |
| 2026-04-22 22:10 | 35.50762 | -115.76249 | 33020 ft | 543 kts | 43° |
| 2026-04-22 22:10 | 35.53293 | -115.72788 | 33132 ft | 550 kts | 44° |
| 2026-04-22 22:10 | 35.55787 | -115.69376 | 33051 ft | 559 kts | 44° |
| 2026-04-22 22:11 | 35.61025 | -115.62189 | 33048 ft | 564 kts | 44° |
| 2026-04-22 22:11 | 35.66224 | -115.55035 | 33047 ft | 565 kts | 44° |
| 2026-04-22 22:12 | 35.71461 | -115.47817 | 33044 ft | 566 kts | 44° |
| 2026-04-22 22:12 | 35.76700 | -115.40577 | 33037 ft | 564 kts | 44° |
| 2026-04-22 22:13 | 35.81919 | -115.33352 | 33016 ft | 565 kts | 44° |
| 2026-04-22 22:13 | 35.87149 | -115.26098 | 33012 ft | 566 kts | 44° |
| 2026-04-22 22:14 | 35.92376 | -115.18830 | 33010 ft | 567 kts | 44° |
| 2026-04-22 22:14 | 35.97615 | -115.11532 | 33018 ft | 568 kts | 44° |
| 2026-04-22 22:15 | 36.02817 | -115.04268 | 33015 ft | 569 kts | 45° |
| 2026-04-22 22:15 | 36.08068 | -114.96920 | 32980 ft | 570 kts | 45° |
| 2026-04-22 22:16 | 36.13317 | -114.89558 | 32961 ft | 571 kts | 45° |
| 2026-04-22 22:16 | 36.18959 | -114.82754 | 32954 ft | 562 kts | 31° |
| 2026-04-22 22:17 | 36.25565 | -114.77802 | 32937 ft | 552 kts | 21° |
| 2026-04-22 22:17 | 36.32353 | -114.73308 | 32931 ft | 554 kts | 22° |
| 2026-04-22 22:18 | 36.39145 | -114.68783 | 32910 ft | 554 kts | 22° |
| 2026-04-22 22:18 | 36.45934 | -114.64263 | 32911 ft | 554 kts | 21° |
| 2026-04-22 22:19 | 36.52763 | -114.59711 | 32907 ft | 555 kts | 22° |
| 2026-04-22 22:19 | 36.59533 | -114.55191 | 32912 ft | 556 kts | 22° |
| 2026-04-22 22:20 | 36.66353 | -114.50628 | 32908 ft | 556 kts | 22° |
| 2026-04-22 22:20 | 36.73110 | -114.45893 | 32911 ft | 561 kts | 27° |
| 2026-04-22 22:21 | 36.79720 | -114.40687 | 32907 ft | 562 kts | 26° |
| 2026-04-22 22:21 | 36.86348 | -114.35498 | 32913 ft | 563 kts | 26° |
| 2026-04-22 22:22 | 36.92986 | -114.30283 | 32892 ft | 564 kts | 27° |
| 2026-04-22 22:22 | 36.99589 | -114.25080 | 32933 ft | 564 kts | 27° |
| 2026-04-22 22:23 | 37.06240 | -114.19827 | 32911 ft | 565 kts | 27° |
| 2026-04-22 22:23 | 37.12906 | -114.14553 | 32919 ft | 566 kts | 27° |
| 2026-04-22 22:24 | 37.19563 | -114.09273 | 32922 ft | 566 kts | 27° |
| 2026-04-22 22:24 | 37.26222 | -114.03982 | 32930 ft | 566 kts | 27° |
| 2026-04-22 22:25 | 37.32830 | -113.98719 | 32931 ft | 566 kts | 27° |
| 2026-04-22 22:25 | 37.39480 | -113.93413 | 32936 ft | 566 kts | 27° |
| 2026-04-22 22:26 | 37.46130 | -113.88095 | 32937 ft | 566 kts | 27° |
| 2026-04-22 22:26 | 37.52775 | -113.82768 | 32934 ft | 566 kts | 27° |
| 2026-04-22 22:27 | 37.59426 | -113.77427 | 32928 ft | 565 kts | 28° |
| 2026-04-22 22:27 | 37.66053 | -113.72093 | 32928 ft | 565 kts | 28° |
| 2026-04-22 22:28 | 37.72677 | -113.66750 | 32920 ft | 565 kts | 28° |
| 2026-04-22 22:28 | 37.79202 | -113.61476 | 32925 ft | 565 kts | 28° |
| 2026-04-22 22:29 | 37.85825 | -113.56110 | 32920 ft | 565 kts | 28° |
| 2026-04-22 22:29 | 37.92480 | -113.50860 | 32917 ft | 560 kts | 22° |
| 2026-04-22 22:30 | 37.99622 | -113.47274 | 32907 ft | 551 kts | 13° |
| 2026-04-22 22:30 | 38.06868 | -113.44099 | 32912 ft | 552 kts | 13° |
| 2026-04-22 22:31 | 38.14101 | -113.40906 | 32906 ft | 552 kts | 13° |
| 2026-04-22 22:31 | 38.21374 | -113.37700 | 32916 ft | 551 kts | 13° |
| 2026-04-22 22:32 | 38.28604 | -113.34510 | 32932 ft | 551 kts | 13° |
| 2026-04-22 22:32 | 38.35835 | -113.31314 | 32952 ft | 551 kts | 14° |
| 2026-04-22 22:33 | 38.43061 | -113.28112 | 32952 ft | 550 kts | 14° |
| 2026-04-22 22:33 | 38.50271 | -113.24911 | 32966 ft | 550 kts | 14° |
| 2026-04-22 22:34 | 38.57520 | -113.21685 | 32952 ft | 550 kts | 14° |
| 2026-04-22 22:34 | 38.64740 | -113.18466 | 32941 ft | 550 kts | 14° |
| 2026-04-22 22:35 | 38.71991 | -113.15224 | 32915 ft | 550 kts | 14° |
| 2026-04-22 22:35 | 38.79159 | -113.12011 | 32911 ft | 550 kts | 15° |
| 2026-04-22 22:36 | 38.86393 | -113.08762 | 32904 ft | 551 kts | 15° |
| 2026-04-22 22:36 | 38.93669 | -113.05487 | 32911 ft | 551 kts | 15° |
| 2026-04-22 22:37 | 39.00897 | -113.02226 | 32912 ft | 551 kts | 15° |
| 2026-04-22 22:37 | 39.08138 | -112.98953 | 32924 ft | 552 kts | 15° |
| 2026-04-22 22:38 | 39.15352 | -112.95684 | 32911 ft | 552 kts | 15° |
| 2026-04-22 22:38 | 39.22617 | -112.92385 | 32928 ft | 552 kts | 15° |
| 2026-04-22 22:39 | 39.29805 | -112.89114 | 32933 ft | 552 kts | 15° |
| 2026-04-22 22:39 | 39.37064 | -112.85804 | 32952 ft | 551 kts | 15° |
| 2026-04-22 22:40 | 39.44297 | -112.82498 | 32951 ft | 551 kts | 16° |
| 2026-04-22 22:40 | 39.51526 | -112.79186 | 32953 ft | 551 kts | 16° |
| 2026-04-22 22:41 | 39.58695 | -112.75895 | 32925 ft | 551 kts | 16° |
| 2026-04-22 22:41 | 39.65936 | -112.72563 | 32924 ft | 550 kts | 16° |
| 2026-04-22 22:41 | 39.69530 | -112.70908 | 33063 ft | 553 kts | 16° |
| 2026-04-22 22:42 | 39.73133 | -112.69245 | 33522 ft | 552 kts | 16° |
| 2026-04-22 22:42 | 39.76760 | -112.67570 | 33875 ft | 550 kts | 17° |
| 2026-04-22 22:42 | 39.80386 | -112.65892 | 33921 ft | 548 kts | 17° |
| 2026-04-22 22:43 | 39.87503 | -112.62596 | 33914 ft | 548 kts | 17° |
| 2026-04-22 22:43 | 39.94755 | -112.59409 | 33924 ft | 545 kts | 10° |
| 2026-04-22 22:44 | 40.02214 | -112.58135 | 33936 ft | 535 kts | 356° |
| 2026-04-22 22:44 | 40.09681 | -112.57877 | 33957 ft | 538 kts | 358° |
| 2026-04-22 22:45 | 40.17162 | -112.57568 | 33969 ft | 540 kts | 358° |
| 2026-04-22 22:45 | 40.24671 | -112.57275 | 33984 ft | 542 kts | 358° |
| 2026-04-22 22:46 | 40.32196 | -112.56987 | 33968 ft | 542 kts | 358° |
| 2026-04-22 22:46 | 40.39744 | -112.56699 | 33990 ft | 543 kts | 358° |
| 2026-04-22 22:47 | 40.47274 | -112.56411 | 33997 ft | 542 kts | 358° |
| 2026-04-22 22:47 | 40.54805 | -112.56122 | 34008 ft | 541 kts | 358° |
| 2026-04-22 22:48 | 40.62358 | -112.55832 | 33999 ft | 541 kts | 358° |
| 2026-04-22 22:48 | 40.69844 | -112.55543 | 33994 ft | 541 kts | 358° |
| 2026-04-22 22:49 | 40.77379 | -112.55246 | 34569 ft | 540 kts | 355° |
| 2026-04-22 22:49 | 40.81111 | -112.55091 | 34255 ft | 531 kts | 355° |
| 2026-04-22 22:49 | 40.84783 | -112.54945 | 34026 ft | 519 kts | 354° |
| 2026-04-22 22:50 | 40.91882 | -112.54676 | 33957 ft | 511 kts | 354° |
| 2026-04-22 22:50 | 40.99038 | -112.54414 | 33948 ft | 517 kts | 355° |
| 2026-04-22 22:51 | 41.06242 | -112.54133 | 33945 ft | 516 kts | 355° |
| 2026-04-22 22:51 | 41.13415 | -112.53853 | 33955 ft | 516 kts | 355° |
| 2026-04-22 22:52 | 41.20584 | -112.53572 | 33944 ft | 516 kts | 355° |
| 2026-04-22 22:52 | 41.27720 | -112.53391 | 33941 ft | 510 kts | 351° |
| 2026-04-22 22:53 | 41.34793 | -112.53937 | 33941 ft | 509 kts | 351° |
| 2026-04-22 22:53 | 41.41856 | -112.54440 | 33941 ft | 509 kts | 351° |
| 2026-04-22 22:54 | 41.48907 | -112.54947 | 33939 ft | 509 kts | 351° |
| 2026-04-22 22:54 | 41.55970 | -112.55461 | 33938 ft | 509 kts | 351° |
| 2026-04-22 22:55 | 41.63051 | -112.55978 | 33942 ft | 509 kts | 352° |
| 2026-04-22 22:55 | 41.72482 | -112.56669 | 33943 ft | 510 kts | 352° |
| 2026-04-22 22:56 | 41.79606 | -112.57192 | 33947 ft | 511 kts | 352° |
| 2026-04-22 22:56 | 41.86693 | -112.57713 | 33949 ft | 511 kts | 352° |
| 2026-04-22 22:57 | 41.93698 | -112.58230 | 33949 ft | 511 kts | 352° |
| 2026-04-22 22:57 | 42.00808 | -112.58755 | 33954 ft | 511 kts | 353° |
| 2026-04-22 22:58 | 42.07897 | -112.59280 | 33950 ft | 510 kts | 353° |
| 2026-04-22 22:58 | 42.14983 | -112.59805 | 33957 ft | 509 kts | 353° |
| 2026-04-22 22:59 | 42.22032 | -112.60329 | 33952 ft | 508 kts | 353° |
| 2026-04-22 22:59 | 42.29092 | -112.60856 | 33954 ft | 508 kts | 353° |
| 2026-04-22 23:00 | 42.36144 | -112.61383 | 33947 ft | 507 kts | 353° |
| 2026-04-22 23:00 | 42.43196 | -112.61911 | 33948 ft | 506 kts | 353° |
| 2026-04-22 23:01 | 42.50208 | -112.62438 | 33947 ft | 506 kts | 353° |
| 2026-04-22 23:01 | 42.57230 | -112.62967 | 34031 ft | 508 kts | 353° |
| 2026-04-22 23:02 | 42.60770 | -112.63233 | 34399 ft | 507 kts | 353° |
| 2026-04-22 23:02 | 42.64269 | -112.63497 | 34744 ft | 507 kts | 353° |
| 2026-04-22 23:02 | 42.67833 | -112.63766 | 34918 ft | 509 kts | 353° |
| 2026-04-22 23:02 | 42.71337 | -112.64031 | 34132 ft | 506 kts | 354° |
| 2026-04-22 23:03 | 42.74862 | -112.64301 | 34431 ft | 506 kts | 354° |
| 2026-04-22 23:03 | 42.78345 | -112.64564 | 34790 ft | 504 kts | 354° |
| 2026-04-22 23:03 | 42.81873 | -112.64829 | 34950 ft | 508 kts | 355° |
| 2026-04-22 23:03 | 42.85413 | -112.64659 | 34948 ft | 517 kts | 7° |
| 2026-04-22 23:04 | 42.88942 | -112.63586 | 34958 ft | 525 kts | 19° |
| 2026-04-22 23:04 | 42.92342 | -112.61607 | 34949 ft | 530 kts | 31° |
| 2026-04-22 23:04 | 42.95403 | -112.58836 | 34947 ft | 534 kts | 42° |
| 2026-04-22 23:04 | 42.98164 | -112.55387 | 34940 ft | 538 kts | 47° |
| 2026-04-22 23:05 | 43.03683 | -112.48467 | 34933 ft | 538 kts | 43° |
| 2026-04-22 23:05 | 43.09557 | -112.42095 | 34920 ft | 541 kts | 40° |
| 2026-04-22 23:06 | 43.15532 | -112.35914 | 34902 ft | 540 kts | 39° |
| 2026-04-22 23:06 | 43.21538 | -112.29709 | 34888 ft | 541 kts | 39° |
| 2026-04-22 23:07 | 43.27538 | -112.23482 | 34886 ft | 540 kts | 39° |
| 2026-04-22 23:07 | 43.33539 | -112.17234 | 35632 ft | 540 kts | 39° |
| 2026-04-22 23:08 | 43.36509 | -112.14121 | 35412 ft | 542 kts | 35° |
| 2026-04-22 23:08 | 43.39526 | -112.10972 | 35065 ft | 543 kts | 35° |
| 2026-04-22 23:08 | 43.42498 | -112.07869 | 34870 ft | 535 kts | 35° |
| 2026-04-22 23:08 | 43.45441 | -112.04788 | 34877 ft | 522 kts | 35° |
| 2026-04-22 23:09 | 43.51130 | -111.98828 | 34880 ft | 512 kts | 34° |
| 2026-04-22 23:09 | 43.57026 | -111.93151 | 34879 ft | 523 kts | 32° |
| 2026-04-22 23:10 | 43.63083 | -111.87421 | 34869 ft | 529 kts | 32° |
| 2026-04-22 23:10 | 43.69101 | -111.81639 | 34841 ft | 523 kts | 33° |
| 2026-04-22 23:11 | 43.74992 | -111.75942 | 34841 ft | 520 kts | 33° |
| 2026-04-22 23:11 | 43.80934 | -111.70181 | 34842 ft | 518 kts | 33° |
| 2026-04-22 23:12 | 43.86849 | -111.64434 | 34842 ft | 526 kts | 33° |
| 2026-04-22 23:12 | 43.92846 | -111.58591 | 34838 ft | 523 kts | 33° |
| 2026-04-22 23:13 | 43.98715 | -111.52859 | 34834 ft | 516 kts | 33° |
| 2026-04-22 23:13 | 44.04604 | -111.47094 | 34827 ft | 515 kts | 33° |
| 2026-04-22 23:14 | 44.10478 | -111.41330 | 34829 ft | 521 kts | 34° |
| 2026-04-22 23:14 | 44.16393 | -111.35511 | 34827 ft | 524 kts | 34° |
| 2026-04-22 23:15 | 44.22340 | -111.29645 | 34835 ft | 523 kts | 34° |
| 2026-04-22 23:15 | 44.28313 | -111.23738 | 34831 ft | 522 kts | 34° |
| 2026-04-22 23:16 | 44.34228 | -111.17873 | 34835 ft | 522 kts | 34° |
| 2026-04-22 23:16 | 44.40117 | -111.12020 | 34818 ft | 519 kts | 34° |
| 2026-04-22 23:17 | 44.46004 | -111.06155 | 34790 ft | 521 kts | 35° |
| 2026-04-22 23:17 | 44.51906 | -111.00260 | 34777 ft | 522 kts | 35° |
| 2026-04-22 23:18 | 44.57796 | -110.94362 | 34780 ft | 523 kts | 35° |
| 2026-04-22 23:18 | 44.63716 | -110.88418 | 34790 ft | 524 kts | 35° |
| 2026-04-22 23:19 | 44.69640 | -110.82454 | 34790 ft | 525 kts | 36° |
| 2026-04-22 23:19 | 44.75571 | -110.76469 | 34789 ft | 526 kts | 36° |
| 2026-04-22 23:20 | 44.81517 | -110.70454 | 34778 ft | 526 kts | 36° |
| 2026-04-22 23:20 | 44.87459 | -110.64427 | 34760 ft | 526 kts | 36° |
| 2026-04-22 23:21 | 44.93424 | -110.58360 | 34742 ft | 526 kts | 36° |
| 2026-04-22 23:21 | 44.99341 | -110.52326 | 34724 ft | 527 kts | 36° |
| 2026-04-22 23:22 | 45.05291 | -110.46243 | 34724 ft | 527 kts | 37° |
| 2026-04-22 23:22 | 45.11224 | -110.40161 | 34720 ft | 528 kts | 37° |
| 2026-04-22 23:23 | 45.17171 | -110.34049 | 34712 ft | 529 kts | 37° |
| 2026-04-22 23:23 | 45.23115 | -110.27923 | 34692 ft | 529 kts | 37° |
| 2026-04-22 23:24 | 45.29043 | -110.21799 | 34675 ft | 528 kts | 37° |
| 2026-04-22 23:24 | 45.34978 | -110.15650 | 34652 ft | 528 kts | 37° |
| 2026-04-22 23:25 | 45.40915 | -110.09484 | 34629 ft | 528 kts | 37° |
| 2026-04-22 23:25 | 45.46837 | -110.03321 | 34614 ft | 527 kts | 38° |
| 2026-04-22 23:26 | 45.52804 | -109.97183 | 34598 ft | 526 kts | 36° |
| 2026-04-22 23:26 | 45.58888 | -109.91415 | 34566 ft | 526 kts | 35° |
| 2026-04-22 23:27 | 45.64942 | -109.85670 | 34558 ft | 525 kts | 35° |
| 2026-04-22 23:27 | 45.71007 | -109.79844 | 34547 ft | 525 kts | 36° |
| 2026-04-22 23:28 | 45.77055 | -109.74001 | 34540 ft | 524 kts | 36° |
| 2026-04-22 23:28 | 45.83081 | -109.68164 | 34534 ft | 524 kts | 36° |
| 2026-04-22 23:29 | 45.89149 | -109.62272 | 34537 ft | 524 kts | 36° |
| 2026-04-22 23:29 | 45.95181 | -109.56399 | 34533 ft | 524 kts | 36° |
| 2026-04-22 23:30 | 46.01199 | -109.50522 | 34535 ft | 524 kts | 36° |
| 2026-04-22 23:30 | 46.07233 | -109.44616 | 34535 ft | 523 kts | 36° |
| 2026-04-22 23:31 | 46.13203 | -109.38756 | 34537 ft | 523 kts | 36° |
| 2026-04-22 23:31 | 46.19251 | -109.32804 | 34533 ft | 523 kts | 36° |
| 2026-04-22 23:32 | 46.25227 | -109.26907 | 34529 ft | 522 kts | 36° |
| 2026-04-22 23:32 | 46.31218 | -109.20979 | 34517 ft | 521 kts | 36° |
| 2026-04-22 23:33 | 46.37179 | -109.15065 | 34504 ft | 520 kts | 36° |
| 2026-04-22 23:33 | 46.43134 | -109.09141 | 34496 ft | 519 kts | 36° |
| 2026-04-22 23:34 | 46.49106 | -109.03183 | 34479 ft | 519 kts | 36° |
| 2026-04-22 23:34 | 46.55043 | -108.97246 | 34478 ft | 518 kts | 36° |
| 2026-04-22 23:35 | 46.60933 | -108.91338 | 34448 ft | 518 kts | 37° |
| 2026-04-22 23:35 | 46.66896 | -108.85340 | 34454 ft | 518 kts | 37° |
| 2026-04-22 23:36 | 46.72795 | -108.79392 | 34442 ft | 518 kts | 37° |
| 2026-04-22 23:36 | 46.78757 | -108.73364 | 34437 ft | 518 kts | 37° |
| 2026-04-22 23:37 | 46.84668 | -108.67370 | 34431 ft | 519 kts | 37° |
| 2026-04-22 23:37 | 46.90578 | -108.61362 | 34423 ft | 519 kts | 37° |
| 2026-04-22 23:38 | 46.96511 | -108.55312 | 34419 ft | 520 kts | 37° |
| 2026-04-22 23:38 | 47.02468 | -108.49223 | 34417 ft | 520 kts | 37° |
| 2026-04-22 23:39 | 47.08366 | -108.43177 | 34404 ft | 521 kts | 37° |
| 2026-04-22 23:39 | 47.14332 | -108.37044 | 34399 ft | 521 kts | 38° |
| 2026-04-22 23:40 | 47.20259 | -108.30934 | 34409 ft | 521 kts | 38° |
| 2026-04-22 23:40 | 47.26184 | -108.24809 | 34405 ft | 521 kts | 38° |
| 2026-04-22 23:41 | 47.32120 | -108.18655 | 34411 ft | 521 kts | 38° |
| 2026-04-22 23:41 | 47.38034 | -108.12507 | 34410 ft | 521 kts | 38° |
| 2026-04-22 23:42 | 47.43964 | -108.06326 | 34415 ft | 520 kts | 38° |
| 2026-04-22 23:42 | 47.49839 | -108.00193 | 34389 ft | 519 kts | 38° |
| 2026-04-22 23:43 | 47.55904 | -107.94408 | 34384 ft | 520 kts | 33° |
| 2026-04-22 23:43 | 47.62136 | -107.88872 | 34367 ft | 518 kts | 34° |
| 2026-04-22 23:44 | 47.68268 | -107.83313 | 34355 ft | 518 kts | 34° |
| 2026-04-22 23:44 | 47.74395 | -107.77691 | 34330 ft | 517 kts | 34° |
| 2026-04-22 23:45 | 47.80480 | -107.72083 | 34324 ft | 517 kts | 34° |
| 2026-04-22 23:45 | 47.86612 | -107.66416 | 34334 ft | 518 kts | 34° |
| 2026-04-22 23:46 | 47.92736 | -107.60741 | 34326 ft | 518 kts | 34° |
| 2026-04-22 23:46 | 47.98857 | -107.55052 | 34324 ft | 519 kts | 34° |
| 2026-04-22 23:47 | 48.03951 | -107.50307 | 34317 ft | 519 kts | 34° |
| 2026-04-22 23:47 | 48.10078 | -107.44583 | 34311 ft | 520 kts | 34° |
| 2026-04-22 23:48 | 48.16200 | -107.38847 | 34304 ft | 521 kts | 34° |
| 2026-04-22 23:48 | 48.22342 | -107.33077 | 34304 ft | 522 kts | 34° |
| 2026-04-22 23:49 | 48.28524 | -107.27251 | 34305 ft | 523 kts | 34° |
| 2026-04-22 23:49 | 48.34650 | -107.21463 | 34304 ft | 524 kts | 34° |
| 2026-04-22 23:50 | 48.40821 | -107.15615 | 34308 ft | 525 kts | 34° |
| 2026-04-22 23:50 | 48.46980 | -107.09761 | 34314 ft | 525 kts | 34° |
| 2026-04-22 23:51 | 48.53178 | -107.03853 | 34320 ft | 525 kts | 34° |
| 2026-04-22 23:51 | 48.59334 | -106.97968 | 34325 ft | 525 kts | 34° |
| 2026-04-22 23:52 | 48.65518 | -106.92038 | 34327 ft | 525 kts | 34° |
| 2026-04-22 23:52 | 48.71661 | -106.86131 | 34331 ft | 525 kts | 34° |
| 2026-04-22 23:53 | 48.77814 | -106.80197 | 34333 ft | 524 kts | 34° |
| 2026-04-22 23:53 | 48.84007 | -106.74206 | 34331 ft | 524 kts | 34° |
| 2026-04-22 23:54 | 48.90120 | -106.68275 | 34336 ft | 524 kts | 34° |
| 2026-04-22 23:54 | 48.96257 | -106.62304 | 34340 ft | 523 kts | 34° |
| 2026-04-22 23:55 | 49.02385 | -106.56323 | 34341 ft | 523 kts | 34° |
| 2026-04-22 23:55 | 49.08493 | -106.50345 | 34346 ft | 522 kts | 34° |
| 2026-04-22 23:56 | 49.14614 | -106.44335 | 34348 ft | 522 kts | 34° |
| 2026-04-22 23:56 | 49.20687 | -106.38355 | 34357 ft | 522 kts | 34° |
| 2026-04-22 23:57 | 49.26799 | -106.32319 | 34354 ft | 522 kts | 34° |
| 2026-04-22 23:57 | 49.32888 | -106.26287 | 34346 ft | 522 kts | 34° |
| 2026-04-22 23:58 | 49.38972 | -106.20242 | 34343 ft | 521 kts | 34° |
| 2026-04-22 23:58 | 49.45078 | -106.14158 | 34341 ft | 521 kts | 34° |
| 2026-04-22 23:59 | 49.51133 | -106.08106 | 34340 ft | 520 kts | 34° |
| 2026-04-22 23:59 | 49.57209 | -106.02014 | 34334 ft | 520 kts | 34° |
| 2026-04-23 00:00 | 49.66261 | -105.92906 | 34331 ft | 520 kts | 34° |
| 2026-04-23 00:01 | 49.72336 | -105.86770 | 34339 ft | 520 kts | 34° |
| 2026-04-23 00:01 | 49.78336 | -105.80690 | 34340 ft | 520 kts | 34° |
| 2026-04-23 00:02 | 49.84419 | -105.74509 | 34344 ft | 520 kts | 34° |
| 2026-04-23 00:02 | 49.90455 | -105.68357 | 34351 ft | 520 kts | 34° |
| 2026-04-23 00:03 | 49.96482 | -105.62194 | 34361 ft | 520 kts | 34° |
| 2026-04-23 00:03 | 50.02483 | -105.56040 | 34365 ft | 520 kts | 34° |
| 2026-04-23 00:04 | 50.08545 | -105.49804 | 34379 ft | 520 kts | 34° |
| 2026-04-23 00:04 | 50.14565 | -105.43592 | 34383 ft | 521 kts | 34° |
| 2026-04-23 00:05 | 50.20596 | -105.37350 | 34386 ft | 521 kts | 34° |
| 2026-04-23 00:05 | 50.26643 | -105.31071 | 34385 ft | 522 kts | 34° |
| 2026-04-23 00:06 | 50.32682 | -105.24782 | 34395 ft | 522 kts | 34° |
| 2026-04-23 00:06 | 50.38714 | -105.18481 | 34400 ft | 523 kts | 34° |
| 2026-04-23 00:07 | 50.44804 | -105.12100 | 34415 ft | 523 kts | 34° |
| 2026-04-23 00:07 | 50.50818 | -105.05778 | 34417 ft | 524 kts | 34° |
| 2026-04-23 00:08 | 50.56874 | -104.99394 | 34423 ft | 524 kts | 34° |
| 2026-04-23 00:08 | 50.62930 | -104.92996 | 34429 ft | 525 kts | 34° |
| 2026-04-23 00:09 | 50.68996 | -104.86604 | 34436 ft | 525 kts | 33° |
| 2026-04-23 00:09 | 50.75191 | -104.80396 | 34452 ft | 526 kts | 32° |
| 2026-04-23 00:10 | 50.81343 | -104.74259 | 34461 ft | 526 kts | 32° |
| 2026-04-23 00:10 | 50.87533 | -104.68036 | 34470 ft | 526 kts | 32° |
| 2026-04-23 00:11 | 50.93713 | -104.61793 | 34478 ft | 527 kts | 32° |
| 2026-04-23 00:11 | 50.99890 | -104.55525 | 34487 ft | 527 kts | 33° |
| 2026-04-23 00:12 | 51.06064 | -104.49238 | 34502 ft | 528 kts | 33° |
| 2026-04-23 00:12 | 51.12228 | -104.42939 | 34508 ft | 528 kts | 33° |
| 2026-04-23 00:13 | 51.18374 | -104.36640 | 34489 ft | 528 kts | 33° |
| 2026-04-23 00:13 | 51.24551 | -104.30288 | 34499 ft | 529 kts | 32° |
| 2026-04-23 00:14 | 51.30748 | -104.23894 | 34514 ft | 529 kts | 33° |
| 2026-04-23 00:14 | 51.36930 | -104.17496 | 34525 ft | 530 kts | 33° |
| 2026-04-23 00:15 | 51.43117 | -104.11072 | 34542 ft | 531 kts | 33° |
| 2026-04-23 00:15 | 51.49305 | -104.04624 | 34551 ft | 531 kts | 33° |
| 2026-04-23 00:16 | 51.55535 | -103.98113 | 34565 ft | 532 kts | 32° |
| 2026-04-23 00:16 | 51.61707 | -103.91640 | 34582 ft | 533 kts | 32° |
| 2026-04-23 00:17 | 51.67936 | -103.85085 | 34590 ft | 533 kts | 32° |
| 2026-04-23 00:17 | 51.74122 | -103.78555 | 34601 ft | 534 kts | 33° |
| 2026-04-23 00:18 | 51.80327 | -103.71982 | 34605 ft | 534 kts | 32° |
| 2026-04-23 00:18 | 51.86534 | -103.65384 | 34607 ft | 534 kts | 32° |
| 2026-04-23 00:19 | 51.92727 | -103.58781 | 34615 ft | 534 kts | 32° |
| 2026-04-23 00:19 | 51.98930 | -103.52144 | 34618 ft | 534 kts | 32° |
| 2026-04-23 00:20 | 52.05110 | -103.45509 | 34619 ft | 534 kts | 32° |
| 2026-04-23 00:20 | 52.11331 | -103.38808 | 34626 ft | 534 kts | 32° |
| 2026-04-23 00:21 | 52.17473 | -103.32169 | 34629 ft | 534 kts | 32° |
| 2026-04-23 00:21 | 52.23651 | -103.25469 | 34635 ft | 534 kts | 32° |
| 2026-04-23 00:22 | 52.29838 | -103.18736 | 34647 ft | 534 kts | 32° |
| 2026-04-23 00:22 | 52.36036 | -103.11968 | 34657 ft | 534 kts | 32° |
| 2026-04-23 00:23 | 52.42202 | -103.05212 | 34665 ft | 534 kts | 32° |
| 2026-04-23 00:23 | 52.48371 | -102.98430 | 34676 ft | 534 kts | 32° |
| 2026-04-23 00:24 | 52.54536 | -102.91629 | 34683 ft | 535 kts | 32° |
| 2026-04-23 00:24 | 52.60700 | -102.84804 | 34690 ft | 535 kts | 32° |
| 2026-04-23 00:25 | 52.66884 | -102.77935 | 34702 ft | 535 kts | 32° |
| 2026-04-23 00:25 | 52.73043 | -102.71069 | 34712 ft | 536 kts | 32° |
| 2026-04-23 00:26 | 52.79212 | -102.64169 | 34717 ft | 536 kts | 32° |
| 2026-04-23 00:26 | 52.85366 | -102.57261 | 34725 ft | 536 kts | 32° |
| 2026-04-23 00:27 | 52.91566 | -102.50277 | 34727 ft | 536 kts | 32° |
| 2026-04-23 00:27 | 52.97710 | -102.43332 | 34736 ft | 536 kts | 32° |
| 2026-04-23 00:28 | 53.03879 | -102.36334 | 34732 ft | 537 kts | 32° |
| 2026-04-23 00:28 | 53.10035 | -102.29326 | 34741 ft | 537 kts | 32° |
| 2026-04-23 00:29 | 53.16180 | -102.22305 | 34746 ft | 537 kts | 32° |
| 2026-04-23 00:29 | 53.22351 | -102.15230 | 34755 ft | 537 kts | 32° |
| 2026-04-23 00:30 | 53.28504 | -102.08151 | 34757 ft | 537 kts | 32° |
| 2026-04-23 00:30 | 53.34611 | -102.01100 | 34765 ft | 537 kts | 32° |
| 2026-04-23 00:31 | 53.40786 | -101.93944 | 34775 ft | 537 kts | 32° |
| 2026-04-23 00:31 | 53.46895 | -101.86840 | 34779 ft | 538 kts | 32° |
| 2026-04-23 00:32 | 53.53048 | -101.79659 | 34788 ft | 538 kts | 32° |
| 2026-04-23 00:32 | 53.59190 | -101.72465 | 34791 ft | 538 kts | 32° |
| 2026-04-23 00:33 | 53.65334 | -101.65243 | 34793 ft | 539 kts | 32° |
| 2026-04-23 00:33 | 53.71488 | -101.57982 | 34805 ft | 539 kts | 32° |
| 2026-04-23 00:34 | 53.77623 | -101.50716 | 34816 ft | 539 kts | 32° |
| 2026-04-23 00:34 | 53.83755 | -101.43429 | 34829 ft | 540 kts | 32° |
| 2026-04-23 00:35 | 53.89907 | -101.36092 | 34831 ft | 540 kts | 32° |
| 2026-04-23 00:35 | 53.96039 | -101.28750 | 34830 ft | 540 kts | 32° |
| 2026-04-23 00:36 | 54.02157 | -101.21398 | 34830 ft | 540 kts | 32° |
| 2026-04-23 00:36 | 54.08278 | -101.14016 | 34835 ft | 540 kts | 32° |
| 2026-04-23 00:37 | 54.14395 | -101.06611 | 34840 ft | 541 kts | 32° |
| 2026-04-23 00:37 | 54.20558 | -100.99123 | 34853 ft | 541 kts | 32° |
| 2026-04-23 00:38 | 54.26692 | -100.91643 | 34871 ft | 541 kts | 32° |
| 2026-04-23 00:38 | 54.32811 | -100.84153 | 34889 ft | 541 kts | 32° |
| 2026-04-23 00:39 | 54.38938 | -100.76625 | 34891 ft | 542 kts | 32° |
| 2026-04-23 00:39 | 54.45053 | -100.69083 | 34900 ft | 542 kts | 32° |
| 2026-04-23 00:40 | 54.51161 | -100.61523 | 34911 ft | 542 kts | 32° |
| 2026-04-23 00:40 | 54.57272 | -100.53929 | 34915 ft | 543 kts | 32° |
| 2026-04-23 00:41 | 54.62347 | -100.47601 | 34929 ft | 543 kts | 32° |
| 2026-04-23 00:41 | 54.68501 | -100.39901 | 34937 ft | 543 kts | 32° |
| 2026-04-23 00:42 | 54.74588 | -100.32255 | 34951 ft | 543 kts | 32° |
| 2026-04-23 00:42 | 54.80701 | -100.24548 | 34955 ft | 543 kts | 32° |
| 2026-04-23 00:43 | 54.86820 | -100.16811 | 34968 ft | 543 kts | 32° |
| 2026-04-23 00:43 | 54.92928 | -100.09066 | 34965 ft | 544 kts | 32° |
| 2026-04-23 00:44 | 54.99006 | -100.01275 | 34980 ft | 545 kts | 34° |
| 2026-04-23 00:44 | 55.04635 | -99.92355 | 34973 ft | 548 kts | 40° |
| 2026-04-23 00:45 | 55.10199 | -99.83290 | 34985 ft | 549 kts | 39° |
| 2026-04-23 00:45 | 55.15810 | -99.74171 | 35000 ft | 550 kts | 39° |
| 2026-04-23 00:46 | 55.21378 | -99.65057 | 35012 ft | 551 kts | 39° |
| 2026-04-23 00:46 | 55.26970 | -99.55856 | 35022 ft | 552 kts | 39° |
| 2026-04-23 00:47 | 55.32585 | -99.46576 | 35037 ft | 553 kts | 39° |
| 2026-04-23 00:47 | 55.38163 | -99.37304 | 35045 ft | 555 kts | 39° |
| 2026-04-23 00:48 | 55.43776 | -99.27931 | 35061 ft | 556 kts | 39° |
| 2026-04-23 00:48 | 55.49367 | -99.18556 | 35080 ft | 557 kts | 39° |
| 2026-04-23 00:49 | 55.55001 | -99.09069 | 35087 ft | 557 kts | 39° |
| 2026-04-23 00:49 | 55.60558 | -98.99673 | 35094 ft | 556 kts | 39° |
| 2026-04-23 00:50 | 55.66130 | -98.90212 | 35094 ft | 556 kts | 39° |
| 2026-04-23 00:50 | 55.71722 | -98.80679 | 35096 ft | 555 kts | 39° |
| 2026-04-23 00:51 | 55.77266 | -98.71189 | 35105 ft | 555 kts | 39° |
| 2026-04-23 00:51 | 55.82804 | -98.61669 | 35102 ft | 554 kts | 39° |
| 2026-04-23 00:52 | 55.88337 | -98.52118 | 35110 ft | 554 kts | 39° |
| 2026-04-23 00:52 | 55.93863 | -98.42538 | 35112 ft | 553 kts | 39° |
| 2026-04-23 00:53 | 55.99363 | -98.32963 | 35112 ft | 553 kts | 39° |
| 2026-04-23 00:53 | 56.04857 | -98.23360 | 35121 ft | 552 kts | 39° |
| 2026-04-23 00:54 | 56.10319 | -98.13771 | 35126 ft | 552 kts | 39° |
| 2026-04-23 00:54 | 56.15790 | -98.04127 | 35137 ft | 551 kts | 39° |
| 2026-04-23 00:55 | 56.21220 | -97.94514 | 35152 ft | 551 kts | 38° |
| 2026-04-23 00:55 | 56.26673 | -97.84820 | 35160 ft | 551 kts | 38° |
| 2026-04-23 00:56 | 56.32119 | -97.75097 | 35164 ft | 551 kts | 38° |
| 2026-04-23 00:56 | 56.37544 | -97.65368 | 35170 ft | 550 kts | 38° |
| 2026-04-23 00:57 | 56.42973 | -97.55594 | 35174 ft | 550 kts | 38° |
| 2026-04-23 00:57 | 56.48296 | -97.45969 | 35182 ft | 550 kts | 38° |
| 2026-04-23 00:58 | 56.53713 | -97.36132 | 35194 ft | 550 kts | 38° |
| 2026-04-23 00:58 | 56.59085 | -97.26334 | 35192 ft | 550 kts | 38° |
| 2026-04-23 00:59 | 56.64495 | -97.16426 | 35205 ft | 551 kts | 38° |
| 2026-04-23 00:59 | 56.69877 | -97.06525 | 35207 ft | 551 kts | 39° |
| 2026-04-23 01:00 | 56.75251 | -96.96597 | 35217 ft | 551 kts | 39° |
| 2026-04-23 01:00 | 56.80596 | -96.86679 | 35228 ft | 552 kts | 38° |
| 2026-04-23 01:01 | 56.85976 | -96.76653 | 35247 ft | 551 kts | 39° |
| 2026-04-23 01:01 | 56.91361 | -96.66573 | 35247 ft | 551 kts | 39° |
| 2026-04-23 01:02 | 56.96695 | -96.56545 | 35250 ft | 551 kts | 39° |
| 2026-04-23 01:02 | 57.02015 | -96.46498 | 35252 ft | 550 kts | 39° |
| 2026-04-23 01:03 | 57.07341 | -96.36399 | 35252 ft | 549 kts | 39° |
| 2026-04-23 01:03 | 57.12647 | -96.26291 | 35263 ft | 549 kts | 39° |
| 2026-04-23 01:04 | 57.17939 | -96.16165 | 35250 ft | 548 kts | 39° |
| 2026-04-23 01:04 | 57.25861 | -96.00925 | 35270 ft | 547 kts | 39° |
| 2026-04-23 01:05 | 57.31109 | -95.90773 | 35274 ft | 547 kts | 39° |
| 2026-04-23 01:05 | 57.36352 | -95.80587 | 35278 ft | 546 kts | 39° |
| 2026-04-23 01:06 | 57.41584 | -95.70374 | 35286 ft | 546 kts | 39° |
| 2026-04-23 01:06 | 57.46796 | -95.60157 | 35301 ft | 546 kts | 39° |
| 2026-04-23 01:07 | 57.51974 | -95.49962 | 35312 ft | 545 kts | 39° |
| 2026-04-23 01:07 | 57.57156 | -95.39711 | 35310 ft | 543 kts | 39° |
| 2026-04-23 01:08 | 57.62327 | -95.29437 | 35318 ft | 542 kts | 39° |
| 2026-04-23 01:08 | 57.67493 | -95.19130 | 35327 ft | 541 kts | 39° |
| 2026-04-23 01:09 | 57.72588 | -95.08917 | 35327 ft | 540 kts | 39° |
| 2026-04-23 01:09 | 57.77711 | -94.98601 | 35328 ft | 538 kts | 39° |
| 2026-04-23 01:10 | 57.82796 | -94.88317 | 35325 ft | 537 kts | 38° |
| 2026-04-23 01:10 | 57.87861 | -94.78031 | 35327 ft | 536 kts | 38° |
| 2026-04-23 01:11 | 57.92904 | -94.67743 | 35330 ft | 536 kts | 38° |
| 2026-04-23 01:11 | 57.97941 | -94.57420 | 35333 ft | 535 kts | 38° |
| 2026-04-23 01:12 | 58.02959 | -94.47088 | 35328 ft | 534 kts | 38° |
| 2026-04-23 01:12 | 58.07963 | -94.36739 | 35333 ft | 533 kts | 38° |
| 2026-04-23 01:13 | 58.12951 | -94.26379 | 35338 ft | 533 kts | 39° |
| 2026-04-23 01:13 | 58.17924 | -94.16002 | 35352 ft | 532 kts | 39° |
| 2026-04-23 01:14 | 58.22879 | -94.05615 | 35353 ft | 531 kts | 39° |
| 2026-04-23 01:14 | 58.27814 | -93.95224 | 35359 ft | 530 kts | 39° |
| 2026-04-23 01:15 | 58.32748 | -93.84788 | 35357 ft | 529 kts | 39° |
| 2026-04-23 01:15 | 58.37647 | -93.74381 | 35356 ft | 528 kts | 39° |
| 2026-04-23 01:16 | 58.42562 | -93.63893 | 35360 ft | 527 kts | 39° |
| 2026-04-23 01:16 | 58.47430 | -93.53457 | 35357 ft | 526 kts | 39° |
| 2026-04-23 01:17 | 58.52280 | -93.43013 | 35362 ft | 525 kts | 40° |
| 2026-04-23 01:17 | 58.57125 | -93.32532 | 35350 ft | 524 kts | 40° |
| 2026-04-23 01:18 | 58.61909 | -93.22138 | 35353 ft | 523 kts | 40° |
| 2026-04-23 01:18 | 58.66726 | -93.11623 | 35366 ft | 522 kts | 40° |
| 2026-04-23 01:19 | 58.71500 | -93.01155 | 35365 ft | 521 kts | 40° |
| 2026-04-23 01:19 | 58.76260 | -92.90672 | 35367 ft | 520 kts | 41° |
| 2026-04-23 01:20 | 58.81007 | -92.80168 | 35360 ft | 519 kts | 41° |
| 2026-04-23 01:20 | 58.85733 | -92.69663 | 35363 ft | 519 kts | 41° |
| 2026-04-23 01:21 | 58.90458 | -92.59115 | 35367 ft | 518 kts | 41° |
| 2026-04-23 01:21 | 58.95135 | -92.48624 | 35366 ft | 519 kts | 42° |
| 2026-04-23 01:22 | 58.99844 | -92.38017 | 35370 ft | 519 kts | 42° |
| 2026-04-23 01:22 | 59.04533 | -92.27403 | 35373 ft | 519 kts | 42° |
| 2026-04-23 01:23 | 59.09215 | -92.16756 | 35377 ft | 519 kts | 42° |
| 2026-04-23 01:23 | 59.13911 | -92.06028 | 35386 ft | 520 kts | 43° |
| 2026-04-23 01:24 | 59.18619 | -91.95224 | 35386 ft | 520 kts | 43° |
| 2026-04-23 01:24 | 59.23263 | -91.84516 | 35382 ft | 520 kts | 43° |
| 2026-04-23 01:25 | 59.27946 | -91.73667 | 35388 ft | 520 kts | 43° |
| 2026-04-23 01:25 | 59.32585 | -91.62870 | 35388 ft | 520 kts | 44° |
| 2026-04-23 01:26 | 59.37248 | -91.51969 | 35394 ft | 520 kts | 44° |
| 2026-04-23 01:26 | 59.41863 | -91.41127 | 35402 ft | 519 kts | 44° |
| 2026-04-23 01:27 | 59.46479 | -91.30233 | 35385 ft | 519 kts | 44° |
| 2026-04-23 01:27 | 59.51099 | -91.19276 | 35390 ft | 519 kts | 44° |
| 2026-04-23 01:28 | 59.55694 | -91.08330 | 35393 ft | 518 kts | 45° |
| 2026-04-23 01:28 | 59.60234 | -90.97462 | 35394 ft | 517 kts | 45° |
| 2026-04-23 01:29 | 59.64807 | -90.86462 | 35390 ft | 517 kts | 45° |
| 2026-04-23 01:29 | 59.69356 | -90.75469 | 35393 ft | 516 kts | 45° |
| 2026-04-23 01:30 | 59.73887 | -90.64467 | 35391 ft | 515 kts | 45° |
| 2026-04-23 01:30 | 59.78412 | -90.53429 | 35390 ft | 514 kts | 45° |
| 2026-04-23 01:31 | 59.82912 | -90.42415 | 35387 ft | 514 kts | 46° |
| 2026-04-23 01:31 | 59.87399 | -90.31398 | 35386 ft | 513 kts | 46° |
| 2026-04-23 01:32 | 59.91900 | -90.20299 | 35387 ft | 513 kts | 46° |
| 2026-04-23 01:32 | 59.96366 | -90.09235 | 35391 ft | 513 kts | 46° |
| 2026-04-23 01:33 | 60.00805 | -89.98088 | 35389 ft | 513 kts | 47° |
| 2026-04-23 01:33 | 60.05336 | -89.87206 | 35387 ft | 510 kts | 44° |
| 2026-04-23 01:34 | 60.10032 | -89.76497 | 35370 ft | 510 kts | 44° |
| 2026-04-23 01:34 | 60.14646 | -89.65788 | 35376 ft | 511 kts | 44° |
| 2026-04-23 01:35 | 60.18511 | -89.56725 | 35403 ft | 510 kts | 45° |
| 2026-04-23 01:35 | 60.23119 | -89.45853 | 35395 ft | 511 kts | 45° |
| 2026-04-23 01:36 | 60.27700 | -89.34974 | 35393 ft | 510 kts | 45° |
| 2026-04-23 01:36 | 60.32281 | -89.24034 | 35395 ft | 510 kts | 45° |
| 2026-04-23 01:37 | 60.36847 | -89.13079 | 35395 ft | 510 kts | 45° |
| 2026-04-23 01:37 | 60.41409 | -89.02081 | 35394 ft | 510 kts | 45° |
| 2026-04-23 01:38 | 60.45954 | -88.91072 | 35392 ft | 510 kts | 46° |
| 2026-04-23 01:38 | 60.50480 | -88.80053 | 35393 ft | 510 kts | 46° |
| 2026-04-23 01:39 | 60.55013 | -88.68967 | 35392 ft | 510 kts | 46° |
| 2026-04-23 01:39 | 60.59534 | -88.57856 | 35388 ft | 509 kts | 46° |
| 2026-04-23 01:40 | 60.64050 | -88.46703 | 35392 ft | 509 kts | 46° |
| 2026-04-23 01:40 | 60.68520 | -88.35610 | 35395 ft | 509 kts | 46° |
| 2026-04-23 01:41 | 60.73026 | -88.24375 | 35394 ft | 509 kts | 46° |
| 2026-04-23 01:41 | 60.77501 | -88.13160 | 35395 ft | 509 kts | 47° |
| 2026-04-23 01:42 | 60.81963 | -88.01925 | 35394 ft | 509 kts | 47° |
| 2026-04-23 01:42 | 60.86426 | -87.90631 | 35393 ft | 509 kts | 47° |
| 2026-04-23 01:43 | 60.90852 | -87.79377 | 35396 ft | 509 kts | 47° |
| 2026-04-23 01:43 | 60.95300 | -87.68008 | 35399 ft | 509 kts | 47° |
| 2026-04-23 01:44 | 60.99734 | -87.56623 | 35399 ft | 509 kts | 47° |
| 2026-04-23 01:44 | 61.04155 | -87.45212 | 35396 ft | 509 kts | 48° |
| 2026-04-23 01:45 | 61.08557 | -87.33793 | 35398 ft | 509 kts | 48° |
| 2026-04-23 01:45 | 61.12952 | -87.22337 | 35397 ft | 509 kts | 48° |
| 2026-04-23 01:46 | 61.17339 | -87.10845 | 35394 ft | 509 kts | 48° |
| 2026-04-23 01:46 | 61.21740 | -86.99255 | 35395 ft | 509 kts | 48° |
| 2026-04-23 01:47 | 61.26102 | -86.87712 | 35399 ft | 509 kts | 49° |
| 2026-04-23 01:47 | 61.30442 | -86.76169 | 35405 ft | 509 kts | 49° |
| 2026-04-23 01:48 | 61.34811 | -86.64491 | 35407 ft | 509 kts | 49° |
| 2026-04-23 01:48 | 61.39142 | -86.52854 | 35395 ft | 509 kts | 49° |
| 2026-04-23 01:49 | 61.43470 | -86.41169 | 35404 ft | 509 kts | 49° |
| 2026-04-23 01:49 | 61.47790 | -86.29442 | 35400 ft | 509 kts | 49° |
| 2026-04-23 01:50 | 61.52097 | -86.17693 | 35402 ft | 509 kts | 50° |
| 2026-04-23 01:50 | 61.56395 | -86.05909 | 35405 ft | 509 kts | 50° |
| 2026-04-23 01:51 | 61.60679 | -85.94101 | 35405 ft | 509 kts | 50° |
| 2026-04-23 01:51 | 61.64960 | -85.82242 | 35403 ft | 509 kts | 50° |
| 2026-04-23 01:52 | 61.69218 | -85.70384 | 35406 ft | 509 kts | 50° |
| 2026-04-23 01:52 | 61.73484 | -85.58442 | 35407 ft | 509 kts | 50° |
| 2026-04-23 01:53 | 61.77725 | -85.46508 | 35407 ft | 509 kts | 51° |
| 2026-04-23 01:53 | 61.81951 | -85.34554 | 35404 ft | 509 kts | 51° |
| 2026-04-23 01:54 | 61.86173 | -85.22550 | 35411 ft | 509 kts | 51° |
| 2026-04-23 01:54 | 61.90415 | -85.10426 | 35405 ft | 509 kts | 51° |
| 2026-04-23 01:55 | 61.94615 | -84.98359 | 35410 ft | 509 kts | 51° |
| 2026-04-23 01:55 | 61.98812 | -84.86233 | 35413 ft | 509 kts | 51° |
| 2026-04-23 01:56 | 62.02999 | -84.74077 | 35416 ft | 510 kts | 52° |
| 2026-04-23 01:56 | 62.07174 | -84.61887 | 35417 ft | 510 kts | 52° |
| 2026-04-23 01:57 | 62.11334 | -84.49676 | 35421 ft | 510 kts | 52° |
| 2026-04-23 01:57 | 62.15478 | -84.37450 | 35422 ft | 510 kts | 52° |
| 2026-04-23 01:58 | 62.19650 | -84.25072 | 35423 ft | 510 kts | 52° |
| 2026-04-23 01:58 | 62.23791 | -84.12721 | 35426 ft | 510 kts | 52° |
| 2026-04-23 01:59 | 62.27914 | -84.00359 | 35423 ft | 510 kts | 53° |
| 2026-04-23 01:59 | 62.32033 | -83.87937 | 35429 ft | 510 kts | 53° |
| 2026-04-23 02:00 | 62.36126 | -83.75529 | 35428 ft | 510 kts | 53° |
| 2026-04-23 02:00 | 62.40221 | -83.63048 | 35426 ft | 510 kts | 53° |
| 2026-04-23 02:01 | 62.44309 | -83.50521 | 35430 ft | 510 kts | 53° |
| 2026-04-23 02:01 | 62.48376 | -83.37987 | 35443 ft | 510 kts | 53° |
| 2026-04-23 02:02 | 62.52430 | -83.25427 | 35441 ft | 510 kts | 54° |
| 2026-04-23 02:02 | 62.56482 | -83.12800 | 35441 ft | 510 kts | 54° |
| 2026-04-23 02:03 | 62.60521 | -83.00148 | 35427 ft | 510 kts | 54° |
| 2026-04-23 02:03 | 62.64545 | -82.87470 | 35426 ft | 510 kts | 54° |
| 2026-04-23 02:04 | 62.68553 | -82.74772 | 35427 ft | 510 kts | 54° |
| 2026-04-23 02:04 | 62.72558 | -82.62013 | 35425 ft | 510 kts | 54° |
| 2026-04-23 02:05 | 62.76557 | -82.49203 | 35436 ft | 510 kts | 55° |
| 2026-04-23 02:05 | 62.80541 | -82.36366 | 35440 ft | 510 kts | 55° |
| 2026-04-23 02:06 | 62.84494 | -82.23558 | 35444 ft | 510 kts | 55° |
| 2026-04-23 02:06 | 62.88451 | -82.10664 | 35447 ft | 510 kts | 55° |
| 2026-04-23 02:07 | 62.92399 | -81.97727 | 35441 ft | 510 kts | 56° |
| 2026-04-23 02:07 | 62.96353 | -81.84697 | 35445 ft | 510 kts | 56° |
| 2026-04-23 02:08 | 63.00275 | -81.71696 | 35443 ft | 510 kts | 56° |
| 2026-04-23 02:08 | 63.04168 | -81.58716 | 35445 ft | 510 kts | 56° |
| 2026-04-23 02:09 | 63.08068 | -81.45640 | 35447 ft | 510 kts | 56° |
| 2026-04-23 02:09 | 63.11966 | -81.32496 | 35449 ft | 510 kts | 56° |
| 2026-04-23 02:10 | 63.15850 | -81.19321 | 35448 ft | 510 kts | 57° |
| 2026-04-23 02:10 | 63.19700 | -81.06186 | 35452 ft | 510 kts | 57° |
| 2026-04-23 02:11 | 63.23535 | -80.93024 | 35453 ft | 511 kts | 57° |
| 2026-04-23 02:11 | 63.27378 | -80.79758 | 35455 ft | 511 kts | 57° |
| 2026-04-23 02:12 | 63.31210 | -80.66454 | 35454 ft | 511 kts | 57° |
| 2026-04-23 02:12 | 63.35035 | -80.53093 | 35687 ft | 514 kts | 57° |
| 2026-04-23 02:13 | 63.36968 | -80.46317 | 36081 ft | 514 kts | 57° |
| 2026-04-23 02:13 | 63.38860 | -80.39674 | 36438 ft | 514 kts | 57° |
| 2026-04-23 02:13 | 63.40786 | -80.32900 | 36784 ft | 514 kts | 57° |
| 2026-04-23 02:13 | 63.42691 | -80.26188 | 37134 ft | 514 kts | 57° |
| 2026-04-23 02:14 | 63.44625 | -80.19352 | 37412 ft | 516 kts | 58° |
| 2026-04-23 02:14 | 63.46529 | -80.12602 | 37458 ft | 516 kts | 58° |
| 2026-04-23 02:14 | 63.50298 | -79.99115 | 37457 ft | 510 kts | 58° |
| 2026-04-23 02:15 | 63.56272 | -79.79318 | 37462 ft | 513 kts | 54° |
| 2026-04-23 02:16 | 63.60375 | -79.66229 | 37463 ft | 513 kts | 55° |
| 2026-04-23 02:16 | 63.64444 | -79.52995 | 37457 ft | 512 kts | 56° |
| 2026-04-23 02:17 | 63.68459 | -79.39795 | 37457 ft | 512 kts | 56° |
| 2026-04-23 02:17 | 63.72470 | -79.26498 | 37457 ft | 512 kts | 56° |
| 2026-04-23 02:18 | 63.76442 | -79.13243 | 37455 ft | 512 kts | 56° |
| 2026-04-23 02:18 | 63.80429 | -78.99862 | 37461 ft | 512 kts | 56° |
| 2026-04-23 02:19 | 63.84412 | -78.86411 | 37464 ft | 513 kts | 57° |
| 2026-04-23 02:19 | 63.88376 | -78.72947 | 37467 ft | 514 kts | 57° |
| 2026-04-23 02:20 | 63.92310 | -78.59504 | 37471 ft | 514 kts | 57° |
| 2026-04-23 02:20 | 63.96256 | -78.45936 | 37475 ft | 515 kts | 57° |
| 2026-04-23 02:21 | 64.00199 | -78.32301 | 37476 ft | 515 kts | 57° |
| 2026-04-23 02:21 | 64.04123 | -78.18645 | 37482 ft | 515 kts | 57° |
| 2026-04-23 02:22 | 64.08040 | -78.04933 | 37483 ft | 516 kts | 58° |
| 2026-04-23 02:22 | 64.11942 | -77.91190 | 37485 ft | 516 kts | 58° |
| 2026-04-23 02:23 | 64.15855 | -77.77320 | 37489 ft | 516 kts | 58° |
| 2026-04-23 02:23 | 64.19729 | -77.63507 | 37488 ft | 516 kts | 58° |
| 2026-04-23 02:24 | 64.23598 | -77.49623 | 37487 ft | 516 kts | 58° |
| 2026-04-23 02:24 | 64.27450 | -77.35713 | 37493 ft | 516 kts | 58° |
| 2026-04-23 02:25 | 64.31290 | -77.21762 | 37488 ft | 517 kts | 59° |
| 2026-04-23 02:25 | 64.35132 | -77.07716 | 37488 ft | 517 kts | 59° |
| 2026-04-23 02:26 | 64.38953 | -76.93659 | 37491 ft | 517 kts | 59° |
| 2026-04-23 02:26 | 64.42744 | -76.79625 | 37492 ft | 517 kts | 59° |
| 2026-04-23 02:27 | 64.46560 | -76.65407 | 37497 ft | 517 kts | 59° |
| 2026-04-23 02:27 | 64.50342 | -76.51223 | 37496 ft | 518 kts | 59° |
| 2026-04-23 02:28 | 64.54120 | -76.36966 | 37505 ft | 518 kts | 60° |
| 2026-04-23 02:28 | 64.57231 | -76.25156 | 37501 ft | 518 kts | 60° |
| 2026-04-23 02:29 | 64.60987 | -76.10815 | 37505 ft | 518 kts | 60° |
| 2026-04-23 02:29 | 64.64727 | -75.96443 | 37504 ft | 518 kts | 60° |
| 2026-04-23 02:30 | 64.68451 | -75.82036 | 37505 ft | 519 kts | 60° |
| 2026-04-23 02:30 | 64.72160 | -75.67596 | 37504 ft | 519 kts | 60° |
| 2026-04-23 02:31 | 64.75870 | -75.53054 | 37509 ft | 519 kts | 61° |
| 2026-04-23 02:31 | 64.79562 | -75.38491 | 37507 ft | 519 kts | 61° |
| 2026-04-23 02:32 | 64.83213 | -75.23992 | 37511 ft | 520 kts | 61° |
| 2026-04-23 02:32 | 64.86897 | -75.09263 | 37505 ft | 520 kts | 61° |
| 2026-04-23 02:33 | 64.90546 | -74.94578 | 37507 ft | 520 kts | 62° |
| 2026-04-23 02:33 | 64.94169 | -74.79903 | 37506 ft | 521 kts | 62° |
| 2026-04-23 02:34 | 64.97794 | -74.65117 | 37505 ft | 521 kts | 62° |
| 2026-04-23 02:34 | 65.01405 | -74.50287 | 37525 ft | 521 kts | 62° |
| 2026-04-23 02:35 | 65.05013 | -74.35370 | 37527 ft | 521 kts | 62° |
| 2026-04-23 02:35 | 65.08608 | -74.20405 | 37529 ft | 521 kts | 63° |
| 2026-04-23 02:36 | 65.12176 | -74.05449 | 37529 ft | 521 kts | 63° |
| 2026-04-23 02:36 | 65.15717 | -73.90507 | 37528 ft | 522 kts | 63° |
| 2026-04-23 02:37 | 65.19261 | -73.75447 | 37535 ft | 522 kts | 63° |
| 2026-04-23 02:37 | 65.22787 | -73.60358 | 37534 ft | 522 kts | 63° |
| 2026-04-23 02:38 | 65.26321 | -73.45129 | 37538 ft | 522 kts | 63° |
| 2026-04-23 02:38 | 65.29814 | -73.29970 | 37534 ft | 522 kts | 64° |
| 2026-04-23 02:39 | 65.33303 | -73.14724 | 37543 ft | 522 kts | 64° |
| 2026-04-23 02:39 | 65.36761 | -72.99502 | 37542 ft | 523 kts | 64° |
| 2026-04-23 02:40 | 65.40223 | -72.84160 | 37541 ft | 523 kts | 64° |
| 2026-04-23 02:40 | 65.43680 | -72.68727 | 37550 ft | 523 kts | 64° |
| 2026-04-23 02:41 | 65.47109 | -72.53306 | 37542 ft | 524 kts | 64° |
| 2026-04-23 02:41 | 65.50530 | -72.37815 | 37547 ft | 524 kts | 65° |
| 2026-04-23 02:42 | 65.53918 | -72.22359 | 37553 ft | 524 kts | 65° |
| 2026-04-23 02:42 | 65.57309 | -72.06777 | 37552 ft | 524 kts | 65° |
| 2026-04-23 02:43 | 65.60700 | -71.91076 | 37549 ft | 524 kts | 65° |
| 2026-04-23 02:43 | 65.64058 | -71.75418 | 37549 ft | 525 kts | 65° |
| 2026-04-23 02:44 | 65.67387 | -71.59777 | 37547 ft | 525 kts | 65° |
| 2026-04-23 02:44 | 65.70714 | -71.44032 | 37546 ft | 525 kts | 65° |
| 2026-04-23 02:45 | 65.74048 | -71.28134 | 37551 ft | 525 kts | 66° |
| 2026-04-23 02:45 | 65.77339 | -71.12320 | 37549 ft | 525 kts | 66° |
| 2026-04-23 02:46 | 65.80621 | -70.96430 | 37549 ft | 526 kts | 66° |
| 2026-04-23 02:46 | 65.83894 | -70.80466 | 37548 ft | 526 kts | 66° |
| 2026-04-23 02:47 | 65.87144 | -70.64490 | 37545 ft | 526 kts | 66° |
| 2026-04-23 02:47 | 65.90381 | -70.48460 | 37554 ft | 527 kts | 67° |
| 2026-04-23 02:48 | 65.93621 | -70.32333 | 37545 ft | 527 kts | 67° |
| 2026-04-23 02:48 | 65.96843 | -70.16221 | 37536 ft | 527 kts | 67° |
| 2026-04-23 02:49 | 66.00026 | -70.00190 | 37548 ft | 528 kts | 67° |
| 2026-04-23 02:49 | 66.03794 | -69.84462 | 37555 ft | 531 kts | 58° |
| 2026-04-23 02:50 | 66.07924 | -69.69431 | 37549 ft | 532 kts | 59° |
| 2026-04-23 02:50 | 66.11945 | -69.54275 | 37546 ft | 532 kts | 60° |
| 2026-04-23 02:51 | 66.15941 | -69.38845 | 37545 ft | 532 kts | 60° |
| 2026-04-23 02:51 | 66.19902 | -69.23372 | 37548 ft | 533 kts | 60° |
| 2026-04-23 02:52 | 66.23845 | -69.07851 | 37545 ft | 533 kts | 60° |
| 2026-04-23 02:52 | 66.27792 | -68.92209 | 37547 ft | 533 kts | 61° |
| 2026-04-23 02:53 | 66.31698 | -68.76619 | 37548 ft | 533 kts | 61° |
| 2026-04-23 02:53 | 66.35594 | -68.60956 | 37549 ft | 534 kts | 61° |
| 2026-04-23 02:54 | 66.39489 | -68.45185 | 37547 ft | 534 kts | 62° |
| 2026-04-23 02:54 | 66.43374 | -68.29343 | 37546 ft | 534 kts | 62° |
| 2026-04-23 02:55 | 66.47236 | -68.13473 | 37543 ft | 535 kts | 62° |
| 2026-04-23 02:55 | 66.51083 | -67.97558 | 37539 ft | 535 kts | 62° |
| 2026-04-23 02:56 | 66.54906 | -67.81620 | 37539 ft | 535 kts | 62° |
| 2026-04-23 02:56 | 66.58739 | -67.65530 | 37529 ft | 536 kts | 62° |
| 2026-04-23 02:57 | 66.62539 | -67.49452 | 37535 ft | 536 kts | 63° |
| 2026-04-23 02:57 | 66.66334 | -67.33283 | 37530 ft | 536 kts | 63° |
| 2026-04-23 02:58 | 66.70111 | -67.17064 | 37523 ft | 537 kts | 63° |
| 2026-04-23 02:58 | 66.73872 | -67.00795 | 37518 ft | 537 kts | 63° |
| 2026-04-23 02:59 | 66.77626 | -66.84434 | 37513 ft | 537 kts | 63° |
| 2026-04-23 02:59 | 66.81353 | -66.68064 | 37504 ft | 538 kts | 64° |
| 2026-04-23 03:00 | 66.85073 | -66.51603 | 37486 ft | 538 kts | 64° |
| 2026-04-23 03:00 | 66.88791 | -66.35021 | 37482 ft | 539 kts | 64° |
| 2026-04-23 03:01 | 66.92480 | -66.18443 | 37467 ft | 539 kts | 64° |
| 2026-04-23 03:01 | 66.96167 | -66.01748 | 37450 ft | 540 kts | 64° |
| 2026-04-23 03:02 | 66.99830 | -65.85030 | 37432 ft | 540 kts | 64° |
| 2026-04-23 03:02 | 67.03486 | -65.68216 | 37418 ft | 540 kts | 65° |
| 2026-04-23 03:03 | 67.07118 | -65.51374 | 37403 ft | 541 kts | 65° |
| 2026-04-23 03:03 | 67.10728 | -65.34503 | 37414 ft | 541 kts | 65° |
| 2026-04-23 03:04 | 67.14322 | -65.17578 | 37413 ft | 540 kts | 65° |
| 2026-04-23 03:04 | 67.17893 | -65.00623 | 37419 ft | 540 kts | 65° |
| 2026-04-23 03:05 | 67.21478 | -64.83461 | 37447 ft | 542 kts | 66° |
| 2026-04-23 03:05 | 67.25021 | -64.66362 | 37470 ft | 543 kts | 66° |
| 2026-04-23 03:06 | 67.28577 | -64.49065 | 37487 ft | 545 kts | 66° |
| 2026-04-23 03:06 | 67.32106 | -64.31758 | 37488 ft | 544 kts | 66° |
| 2026-04-23 03:07 | 67.35611 | -64.14417 | 37487 ft | 544 kts | 66° |
| 2026-04-23 03:07 | 67.39119 | -63.96926 | 37486 ft | 544 kts | 67° |
| 2026-04-23 03:08 | 67.42594 | -63.79452 | 37485 ft | 544 kts | 67° |
| 2026-04-23 03:08 | 67.46043 | -63.61962 | 37487 ft | 544 kts | 67° |
| 2026-04-23 03:09 | 67.49486 | -63.44360 | 37485 ft | 545 kts | 67° |
| 2026-04-23 03:09 | 67.52905 | -63.26729 | 37497 ft | 545 kts | 68° |
| 2026-04-23 03:10 | 67.56308 | -63.09028 | 37512 ft | 546 kts | 68° |
| 2026-04-23 03:10 | 67.59684 | -62.91315 | 37515 ft | 546 kts | 68° |
| 2026-04-23 03:11 | 67.63066 | -62.73423 | 37519 ft | 547 kts | 68° |
| 2026-04-23 03:11 | 67.66423 | -62.55501 | 37518 ft | 547 kts | 68° |
| 2026-04-23 03:12 | 67.69763 | -62.37521 | 37515 ft | 548 kts | 69° |
| 2026-04-23 03:12 | 67.73081 | -62.19495 | 37513 ft | 548 kts | 69° |
| 2026-04-23 03:13 | 67.76387 | -62.01377 | 37510 ft | 549 kts | 69° |
| 2026-04-23 03:13 | 67.79689 | -61.83117 | 37508 ft | 549 kts | 69° |
| 2026-04-23 03:14 | 67.82952 | -61.64910 | 37518 ft | 550 kts | 69° |
| 2026-04-23 03:14 | 67.86203 | -61.46610 | 37515 ft | 550 kts | 70° |
| 2026-04-23 03:15 | 67.89451 | -61.28153 | 37500 ft | 550 kts | 70° |
| 2026-04-23 03:15 | 67.92672 | -61.09708 | 37499 ft | 551 kts | 70° |
| 2026-04-23 03:16 | 67.95880 | -60.91250 | 37492 ft | 551 kts | 70° |
| 2026-04-23 03:16 | 68.01003 | -60.63772 | 37482 ft | 557 kts | 61° |
| 2026-04-23 03:17 | 68.05300 | -60.46571 | 37478 ft | 558 kts | 60° |
| 2026-04-23 03:17 | 68.09533 | -60.29184 | 37478 ft | 558 kts | 62° |
| 2026-04-23 03:18 | 68.13675 | -60.11589 | 37473 ft | 558 kts | 62° |
| 2026-04-23 03:18 | 68.17767 | -59.93910 | 37472 ft | 559 kts | 62° |
| 2026-04-23 03:19 | 68.21843 | -59.76132 | 37472 ft | 559 kts | 63° |
| 2026-04-23 03:19 | 68.25907 | -59.58263 | 37467 ft | 559 kts | 63° |
| 2026-04-23 03:20 | 68.29966 | -59.40270 | 37465 ft | 560 kts | 63° |
| 2026-04-23 03:20 | 68.33987 | -59.22292 | 37457 ft | 560 kts | 63° |
| 2026-04-23 03:21 | 68.37998 | -59.04213 | 37453 ft | 560 kts | 63° |
| 2026-04-23 03:21 | 68.41986 | -58.86083 | 37450 ft | 560 kts | 64° |
| 2026-04-23 03:22 | 68.45954 | -58.67887 | 37441 ft | 560 kts | 64° |
| 2026-04-23 03:22 | 68.49912 | -58.49589 | 37435 ft | 560 kts | 64° |
| 2026-04-23 03:23 | 68.53841 | -58.31262 | 37428 ft | 560 kts | 64° |
| 2026-04-23 03:23 | 68.57741 | -58.12921 | 37419 ft | 560 kts | 64° |
| 2026-04-23 03:24 | 68.61628 | -57.94476 | 37420 ft | 561 kts | 65° |
| 2026-04-23 03:24 | 68.65517 | -57.75865 | 37416 ft | 561 kts | 65° |
| 2026-04-23 03:25 | 68.69378 | -57.57222 | 37425 ft | 561 kts | 65° |
| 2026-04-23 03:25 | 68.73212 | -57.38545 | 37411 ft | 561 kts | 65° |
| 2026-04-23 03:26 | 68.77034 | -57.19766 | 37407 ft | 562 kts | 65° |
| 2026-04-23 03:26 | 68.80828 | -57.00955 | 37399 ft | 562 kts | 66° |
| 2026-04-23 03:27 | 68.84603 | -56.82070 | 37395 ft | 562 kts | 66° |
| 2026-04-23 03:27 | 68.88364 | -56.63091 | 37395 ft | 562 kts | 66° |
| 2026-04-23 03:28 | 68.92101 | -56.44053 | 37389 ft | 562 kts | 66° |
| 2026-04-23 03:28 | 68.95814 | -56.24972 | 37388 ft | 562 kts | 67° |
| 2026-04-23 03:29 | 68.98876 | -56.09098 | 37377 ft | 562 kts | 67° |
| 2026-04-23 03:29 | 69.03160 | -55.86692 | 37380 ft | 562 kts | 67° |
| 2026-04-23 03:30 | 69.06218 | -55.70548 | 37382 ft | 562 kts | 68° |
| 2026-04-23 03:30 | 69.10437 | -55.48062 | 37369 ft | 562 kts | 68° |
| 2026-04-23 03:31 | 69.13452 | -55.31848 | 37367 ft | 562 kts | 68° |
| 2026-04-23 03:31 | 69.17045 | -55.12354 | 37354 ft | 563 kts | 68° |
| 2026-04-23 03:32 | 69.20631 | -54.92713 | 37346 ft | 563 kts | 68° |
| 2026-04-23 03:32 | 69.24166 | -54.73166 | 37361 ft | 564 kts | 68° |
| 2026-04-23 03:33 | 69.27717 | -54.53346 | 37360 ft | 564 kts | 69° |
| 2026-04-23 03:33 | 69.31208 | -54.33667 | 37361 ft | 563 kts | 69° |
| 2026-04-23 03:34 | 69.34697 | -54.13809 | 37368 ft | 563 kts | 69° |
| 2026-04-23 03:34 | 69.38168 | -53.93867 | 37362 ft | 563 kts | 69° |
| 2026-04-23 03:35 | 69.41603 | -53.73935 | 37356 ft | 562 kts | 69° |
| 2026-04-23 03:35 | 69.45012 | -53.53955 | 37361 ft | 561 kts | 70° |
| 2026-04-23 03:36 | 69.48392 | -53.33938 | 37362 ft | 562 kts | 70° |
| 2026-04-23 03:36 | 69.51759 | -53.13807 | 37372 ft | 561 kts | 70° |
| 2026-04-23 03:37 | 69.55099 | -52.93632 | 37356 ft | 561 kts | 70° |
| 2026-04-23 03:37 | 69.58401 | -52.73480 | 37351 ft | 560 kts | 70° |
| 2026-04-23 03:38 | 69.61684 | -52.53257 | 37343 ft | 560 kts | 70° |
| 2026-04-23 03:38 | 69.64939 | -52.32976 | 37342 ft | 561 kts | 70° |
| 2026-04-23 03:39 | 69.68178 | -52.12600 | 37340 ft | 561 kts | 71° |
| 2026-04-23 03:39 | 69.71396 | -51.92139 | 37347 ft | 562 kts | 71° |
| 2026-04-23 03:40 | 69.74596 | -51.71580 | 37362 ft | 564 kts | 71° |
| 2026-04-23 03:40 | 69.77783 | -51.50889 | 37372 ft | 565 kts | 71° |
| 2026-04-23 03:41 | 69.80961 | -51.30034 | 37396 ft | 566 kts | 71° |
| 2026-04-23 03:41 | 69.84107 | -51.09171 | 37392 ft | 567 kts | 71° |
| 2026-04-23 03:42 | 69.87235 | -50.88195 | 37408 ft | 568 kts | 71° |
| 2026-04-23 03:42 | 69.90357 | -50.67033 | 37404 ft | 568 kts | 72° |
| 2026-04-23 03:43 | 69.93446 | -50.45866 | 37413 ft | 568 kts | 72° |
| 2026-04-23 03:43 | 69.96512 | -50.24736 | 37413 ft | 567 kts | 72° |
| 2026-04-23 03:44 | 69.99402 | -50.03408 | 37416 ft | 564 kts | 77° |
| 2026-04-23 03:44 | 70.01435 | -49.81470 | 37413 ft | 556 kts | 85° |
| 2026-04-23 03:45 | 70.03120 | -49.59351 | 37411 ft | 558 kts | 83° |
| 2026-04-23 03:45 | 70.04866 | -49.37239 | 37413 ft | 558 kts | 83° |
| 2026-04-23 03:46 | 70.06553 | -49.15064 | 37401 ft | 558 kts | 84° |
| 2026-04-23 03:46 | 70.08189 | -48.92879 | 37384 ft | 558 kts | 84° |
| 2026-04-23 03:47 | 70.09802 | -48.70572 | 37383 ft | 558 kts | 84° |
| 2026-04-23 03:47 | 70.11378 | -48.48369 | 37374 ft | 558 kts | 84° |
| 2026-04-23 03:48 | 70.12933 | -48.26036 | 37356 ft | 558 kts | 84° |
| 2026-04-23 03:48 | 70.14458 | -48.03693 | 37352 ft | 558 kts | 85° |
| 2026-04-23 03:49 | 70.15965 | -47.81177 | 37348 ft | 558 kts | 85° |
| 2026-04-23 03:49 | 70.17428 | -47.58872 | 37340 ft | 558 kts | 85° |
| 2026-04-23 03:50 | 70.18870 | -47.36424 | 37342 ft | 557 kts | 85° |
| 2026-04-23 03:50 | 70.20287 | -47.13901 | 37338 ft | 557 kts | 86° |
| 2026-04-23 03:51 | 70.21671 | -46.91414 | 37340 ft | 557 kts | 86° |
| 2026-04-23 03:51 | 70.23028 | -46.68884 | 37346 ft | 557 kts | 86° |
| 2026-04-23 03:52 | 70.24355 | -46.46364 | 37347 ft | 557 kts | 86° |
| 2026-04-23 03:52 | 70.25646 | -46.23945 | 37339 ft | 556 kts | 86° |
| 2026-04-23 03:53 | 70.26919 | -46.01320 | 37342 ft | 556 kts | 87° |
| 2026-04-23 03:53 | 70.28158 | -45.78756 | 37336 ft | 556 kts | 87° |
| 2026-04-23 03:54 | 70.29372 | -45.56136 | 37330 ft | 557 kts | 87° |
| 2026-04-23 03:54 | 70.30556 | -45.33485 | 37327 ft | 557 kts | 87° |
| 2026-04-23 03:55 | 70.31711 | -45.10845 | 37323 ft | 557 kts | 88° |
| 2026-04-23 03:55 | 70.32847 | -44.87987 | 37317 ft | 557 kts | 88° |
| 2026-04-23 03:56 | 70.33948 | -44.65227 | 37305 ft | 557 kts | 88° |
| 2026-04-23 03:56 | 70.35019 | -44.42470 | 37315 ft | 557 kts | 88° |
| 2026-04-23 03:57 | 70.36063 | -44.19655 | 37293 ft | 557 kts | 88° |
| 2026-04-23 03:57 | 70.37075 | -43.96883 | 37282 ft | 557 kts | 88° |
| 2026-04-23 03:58 | 70.38061 | -43.74021 | 37289 ft | 557 kts | 88° |
| 2026-04-23 03:58 | 70.39017 | -43.51163 | 37277 ft | 557 kts | 88° |
| 2026-04-23 03:59 | 70.39946 | -43.28250 | 37286 ft | 557 kts | 89° |
| 2026-04-23 03:59 | 70.40841 | -43.05438 | 37288 ft | 557 kts | 89° |
| 2026-04-23 04:00 | 70.41712 | -42.82499 | 37286 ft | 558 kts | 89° |
| 2026-04-23 04:00 | 70.42552 | -42.59587 | 37290 ft | 556 kts | 89° |
| 2026-04-23 04:01 | 70.43361 | -42.36721 | 37288 ft | 554 kts | 89° |
| 2026-04-23 04:01 | 70.44144 | -42.13732 | 37285 ft | 554 kts | 89° |
| 2026-04-23 04:02 | 70.44893 | -41.90880 | 37272 ft | 553 kts | 89° |
| 2026-04-23 04:02 | 70.45608 | -41.68199 | 37272 ft | 551 kts | 89° |
| 2026-04-23 04:03 | 70.46299 | -41.45357 | 37264 ft | 550 kts | 90° |
| 2026-04-23 04:03 | 70.46955 | -41.22691 | 37256 ft | 548 kts | 90° |
| 2026-04-23 04:04 | 70.47582 | -41.00066 | 37247 ft | 546 kts | 90° |
| 2026-04-23 04:04 | 70.48180 | -40.77470 | 37249 ft | 545 kts | 90° |
| 2026-04-23 04:05 | 70.48748 | -40.54895 | 37248 ft | 543 kts | 90° |
| 2026-04-23 04:05 | 70.49290 | -40.32409 | 37244 ft | 542 kts | 90° |
| 2026-04-23 04:06 | 70.49801 | -40.09953 | 37243 ft | 540 kts | 92° |
| 2026-04-23 04:06 | 70.49751 | -39.87546 | 37241 ft | 533 kts | 100° |
| 2026-04-23 04:07 | 70.49166 | -39.65575 | 37245 ft | 533 kts | 99° |
| 2026-04-23 04:07 | 70.48671 | -39.43384 | 37255 ft | 533 kts | 99° |
| 2026-04-23 04:08 | 70.48143 | -39.21404 | 37264 ft | 533 kts | 99° |
| 2026-04-23 04:08 | 70.47561 | -38.99259 | 37267 ft | 533 kts | 99° |
| 2026-04-23 04:09 | 70.46950 | -38.77217 | 37287 ft | 533 kts | 100° |
| 2026-04-23 04:09 | 70.46309 | -38.55104 | 37290 ft | 534 kts | 100° |
| 2026-04-23 04:10 | 70.45644 | -38.33078 | 37297 ft | 533 kts | 100° |
| 2026-04-23 04:10 | 70.44952 | -38.11052 | 37297 ft | 533 kts | 100° |
| 2026-04-23 04:11 | 70.44234 | -37.89075 | 37300 ft | 532 kts | 100° |
| 2026-04-23 04:11 | 70.43491 | -37.67168 | 37295 ft | 531 kts | 100° |
| 2026-04-23 04:12 | 70.42722 | -37.45271 | 37292 ft | 531 kts | 100° |
| 2026-04-23 04:12 | 70.41929 | -37.23444 | 37289 ft | 530 kts | 101° |
| 2026-04-23 04:13 | 70.41107 | -37.01581 | 37286 ft | 530 kts | 101° |
| 2026-04-23 04:13 | 70.40260 | -36.79770 | 37283 ft | 529 kts | 101° |
| 2026-04-23 04:14 | 70.39389 | -36.58036 | 37282 ft | 529 kts | 101° |
| 2026-04-23 04:14 | 70.38494 | -36.36351 | 37276 ft | 529 kts | 101° |
| 2026-04-23 04:15 | 70.37572 | -36.14663 | 37275 ft | 528 kts | 101° |
| 2026-04-23 04:16 | 70.36145 | -35.82294 | 37274 ft | 528 kts | 101° |
| 2026-04-23 04:16 | 70.35157 | -35.60636 | 37269 ft | 527 kts | 101° |
| 2026-04-23 04:17 | 70.34148 | -35.39092 | 37268 ft | 527 kts | 101° |
| 2026-04-23 04:17 | 70.33113 | -35.17565 | 37262 ft | 526 kts | 101° |
| 2026-04-23 04:18 | 70.32053 | -34.96079 | 37278 ft | 526 kts | 101° |
| 2026-04-23 04:18 | 70.30977 | -34.74810 | 37260 ft | 525 kts | 101° |
| 2026-04-23 04:19 | 70.29869 | -34.53412 | 37256 ft | 524 kts | 101° |
| 2026-04-23 04:19 | 70.28735 | -34.32030 | 37257 ft | 523 kts | 101° |
| 2026-04-23 04:20 | 70.27583 | -34.10811 | 37255 ft | 522 kts | 101° |
| 2026-04-23 04:20 | 70.26417 | -33.89798 | 37245 ft | 521 kts | 101° |
| 2026-04-23 04:21 | 70.25218 | -33.68672 | 37253 ft | 520 kts | 101° |
| 2026-04-23 04:21 | 70.23996 | -33.47608 | 37253 ft | 519 kts | 102° |
| 2026-04-23 04:22 | 70.22758 | -33.26694 | 37254 ft | 518 kts | 102° |
| 2026-04-23 04:22 | 70.21492 | -33.05758 | 37260 ft | 518 kts | 102° |
| 2026-04-23 04:23 | 70.20202 | -32.84854 | 37265 ft | 518 kts | 102° |
| 2026-04-23 04:23 | 70.18892 | -32.64044 | 37264 ft | 517 kts | 102° |
| 2026-04-23 04:24 | 70.17559 | -32.43269 | 37258 ft | 517 kts | 102° |
| 2026-04-23 04:24 | 70.16200 | -32.22489 | 37251 ft | 517 kts | 102° |
| 2026-04-23 04:25 | 70.14810 | -32.01633 | 37239 ft | 516 kts | 102° |
| 2026-04-23 04:25 | 70.13406 | -31.80969 | 37219 ft | 516 kts | 102° |
| 2026-04-23 04:26 | 70.11983 | -31.60386 | 37195 ft | 515 kts | 102° |
| 2026-04-23 04:26 | 70.10538 | -31.39866 | 37170 ft | 514 kts | 102° |
| 2026-04-23 04:27 | 70.09064 | -31.19286 | 37152 ft | 513 kts | 103° |
| 2026-04-23 04:27 | 70.07576 | -30.98869 | 37132 ft | 513 kts | 103° |
| 2026-04-23 04:28 | 70.05294 | -30.68224 | 37151 ft | 513 kts | 103° |
| 2026-04-23 04:28 | 70.04010 | -30.51319 | 37182 ft | 512 kts | 103° |
| 2026-04-23 04:29 | 70.02189 | -30.27639 | 37212 ft | 511 kts | 103° |
| 2026-04-23 04:29 | 70.00607 | -30.07463 | 37216 ft | 510 kts | 104° |
| 2026-04-23 04:30 | 69.99014 | -29.90916 | 37214 ft | 508 kts | 109° |
| 2026-04-23 04:30 | 69.96700 | -29.71424 | 37205 ft | 507 kts | 109° |
| 2026-04-23 04:31 | 69.94484 | -29.52006 | 37184 ft | 506 kts | 109° |
| 2026-04-23 04:31 | 69.92252 | -29.32596 | 37159 ft | 505 kts | 109° |
| 2026-04-23 04:32 | 69.89991 | -29.13330 | 37139 ft | 504 kts | 109° |
| 2026-04-23 04:32 | 69.87685 | -28.93981 | 37140 ft | 504 kts | 109° |
| 2026-04-23 04:33 | 69.85368 | -28.74771 | 37141 ft | 504 kts | 109° |
| 2026-04-23 04:33 | 69.83032 | -28.55607 | 37148 ft | 505 kts | 110° |
| 2026-04-23 04:34 | 69.80684 | -28.36559 | 37148 ft | 505 kts | 110° |
| 2026-04-23 04:34 | 69.78292 | -28.17361 | 37144 ft | 505 kts | 110° |
| 2026-04-23 04:35 | 69.75909 | -27.98446 | 37141 ft | 505 kts | 110° |
| 2026-04-23 04:35 | 69.73473 | -27.79321 | 37135 ft | 505 kts | 110° |
| 2026-04-23 04:36 | 69.71041 | -27.60431 | 37138 ft | 505 kts | 111° |
| 2026-04-23 04:36 | 69.68583 | -27.41539 | 37147 ft | 506 kts | 111° |
| 2026-04-23 04:37 | 69.66080 | -27.22503 | 37151 ft | 506 kts | 111° |
| 2026-04-23 04:37 | 69.63577 | -27.03661 | 37160 ft | 506 kts | 111° |
| 2026-04-23 04:38 | 69.61059 | -26.84904 | 37169 ft | 505 kts | 112° |
| 2026-04-23 04:38 | 69.58517 | -26.66163 | 37182 ft | 504 kts | 112° |
| 2026-04-23 04:39 | 69.55962 | -26.47533 | 37183 ft | 502 kts | 112° |
| 2026-04-23 04:39 | 69.53390 | -26.28956 | 37227 ft | 501 kts | 112° |
| 2026-04-23 04:40 | 69.50804 | -26.10458 | 37235 ft | 500 kts | 112° |
| 2026-04-23 04:40 | 69.48225 | -25.92196 | 37235 ft | 499 kts | 112° |
| 2026-04-23 04:41 | 69.45611 | -25.73866 | 37237 ft | 497 kts | 112° |
| 2026-04-23 04:41 | 69.43000 | -25.55739 | 37236 ft | 496 kts | 112° |
| 2026-04-23 04:42 | 69.40364 | -25.37607 | 37234 ft | 494 kts | 112° |
| 2026-04-23 04:42 | 69.37724 | -25.19621 | 37221 ft | 493 kts | 112° |
| 2026-04-23 04:43 | 69.35087 | -25.01831 | 37220 ft | 492 kts | 112° |
| 2026-04-23 04:43 | 69.32420 | -24.84000 | 37225 ft | 491 kts | 113° |
| 2026-04-23 04:44 | 69.29726 | -24.66156 | 37224 ft | 491 kts | 113° |
| 2026-04-23 04:44 | 69.27030 | -24.48467 | 37222 ft | 490 kts | 113° |
| 2026-04-23 04:45 | 69.24323 | -24.30864 | 37224 ft | 489 kts | 113° |
| 2026-04-23 04:45 | 69.21598 | -24.13303 | 37229 ft | 489 kts | 113° |
| 2026-04-23 04:46 | 69.18855 | -23.95789 | 37236 ft | 490 kts | 113° |
| 2026-04-23 04:46 | 69.16096 | -23.78327 | 37235 ft | 490 kts | 113° |
| 2026-04-23 04:47 | 69.13317 | -23.60895 | 37246 ft | 491 kts | 113° |
| 2026-04-23 04:47 | 69.10522 | -23.43518 | 37251 ft | 491 kts | 114° |
| 2026-04-23 04:48 | 69.07676 | -23.25976 | 37253 ft | 492 kts | 114° |
| 2026-04-23 04:48 | 69.04846 | -23.08691 | 37272 ft | 492 kts | 114° |
| 2026-04-23 04:49 | 69.01963 | -22.91229 | 37282 ft | 493 kts | 114° |
| 2026-04-23 04:49 | 68.99094 | -22.74013 | 37286 ft | 492 kts | 114° |
| 2026-04-23 04:50 | 68.96186 | -22.56703 | 37286 ft | 492 kts | 114° |
| 2026-04-23 04:50 | 68.93271 | -22.39504 | 37269 ft | 491 kts | 114° |
| 2026-04-23 04:51 | 68.90339 | -22.22358 | 37276 ft | 490 kts | 114° |
| 2026-04-23 04:51 | 68.87410 | -22.05367 | 37279 ft | 489 kts | 114° |
| 2026-04-23 04:52 | 68.84456 | -21.88376 | 37279 ft | 488 kts | 114° |
| 2026-04-23 04:52 | 68.81504 | -21.71541 | 37276 ft | 488 kts | 115° |
| 2026-04-23 04:53 | 68.78525 | -21.54691 | 37284 ft | 487 kts | 115° |
| 2026-04-23 04:53 | 68.75542 | -21.37955 | 37284 ft | 486 kts | 115° |
| 2026-04-23 04:54 | 68.72562 | -21.21368 | 37285 ft | 485 kts | 115° |
| 2026-04-23 04:54 | 68.69558 | -21.04791 | 37289 ft | 484 kts | 115° |
| 2026-04-23 04:55 | 68.66524 | -20.88184 | 37290 ft | 483 kts | 115° |
| 2026-04-23 04:55 | 68.63502 | -20.71768 | 37289 ft | 482 kts | 115° |
| 2026-04-23 04:56 | 68.60464 | -20.55397 | 37289 ft | 482 kts | 115° |
| 2026-04-23 04:56 | 68.57408 | -20.39069 | 37296 ft | 481 kts | 116° |
| 2026-04-23 04:57 | 68.54359 | -20.22837 | 37300 ft | 481 kts | 116° |
| 2026-04-23 04:57 | 68.51311 | -20.06703 | 37301 ft | 480 kts | 116° |
| 2026-04-23 04:58 | 68.48146 | -19.90723 | 37304 ft | 479 kts | 118° |
| 2026-04-23 04:58 | 68.44936 | -19.74766 | 37303 ft | 479 kts | 116° |
| 2026-04-23 04:59 | 68.41790 | -19.58846 | 37303 ft | 479 kts | 117° |
| 2026-04-23 04:59 | 68.38628 | -19.42995 | 37307 ft | 478 kts | 117° |
| 2026-04-23 05:00 | 68.35443 | -19.27206 | 37312 ft | 478 kts | 117° |
| 2026-04-23 05:00 | 68.32223 | -19.11430 | 37315 ft | 478 kts | 117° |
| 2026-04-23 05:01 | 68.28990 | -18.95704 | 37312 ft | 479 kts | 118° |
| 2026-04-23 05:01 | 68.25753 | -18.80085 | 37317 ft | 479 kts | 118° |
| 2026-04-23 05:02 | 68.22488 | -18.64448 | 37323 ft | 479 kts | 118° |
| 2026-04-23 05:02 | 68.19188 | -18.48755 | 37322 ft | 479 kts | 118° |
| 2026-04-23 05:03 | 68.15916 | -18.33311 | 37324 ft | 478 kts | 119° |
| 2026-04-23 05:03 | 68.12597 | -18.17756 | 37327 ft | 478 kts | 119° |
| 2026-04-23 05:04 | 68.09301 | -18.02420 | 37333 ft | 478 kts | 119° |
| 2026-04-23 05:04 | 68.05970 | -17.87031 | 37333 ft | 478 kts | 119° |
| 2026-04-23 05:05 | 68.02623 | -17.71684 | 37338 ft | 477 kts | 120° |
| 2026-04-23 05:05 | 67.99276 | -17.56447 | 37339 ft | 477 kts | 120° |
| 2026-04-23 05:06 | 67.95912 | -17.41236 | 37343 ft | 476 kts | 120° |
| 2026-04-23 05:06 | 67.92544 | -17.26113 | 37349 ft | 475 kts | 120° |
| 2026-04-23 05:07 | 67.89158 | -17.11017 | 37353 ft | 474 kts | 120° |
| 2026-04-23 05:07 | 67.85768 | -16.96010 | 37351 ft | 473 kts | 120° |
| 2026-04-23 05:08 | 67.82374 | -16.81089 | 37354 ft | 472 kts | 120° |
| 2026-04-23 05:08 | 67.78979 | -16.66268 | 37355 ft | 471 kts | 121° |
| 2026-04-23 05:09 | 67.75592 | -16.51578 | 37351 ft | 470 kts | 121° |
| 2026-04-23 05:09 | 67.72175 | -16.36857 | 37346 ft | 469 kts | 121° |
| 2026-04-23 05:10 | 67.68753 | -16.22219 | 37346 ft | 469 kts | 121° |
| 2026-04-23 05:10 | 67.65341 | -16.07719 | 37345 ft | 468 kts | 121° |
| 2026-04-23 05:11 | 67.61888 | -15.93144 | 37345 ft | 468 kts | 121° |
| 2026-04-23 05:11 | 67.58463 | -15.78783 | 37349 ft | 468 kts | 121° |
| 2026-04-23 05:12 | 67.55000 | -15.64356 | 37354 ft | 468 kts | 122° |
| 2026-04-23 05:12 | 67.51565 | -15.50139 | 37358 ft | 468 kts | 122° |
| 2026-04-23 05:13 | 67.48069 | -15.35767 | 37361 ft | 467 kts | 122° |
| 2026-04-23 05:14 | 67.42838 | -15.14437 | 37364 ft | 467 kts | 122° |
| 2026-04-23 05:14 | 67.39333 | -15.00257 | 37369 ft | 466 kts | 122° |
| 2026-04-23 05:15 | 67.35808 | -14.86092 | 37374 ft | 466 kts | 122° |
| 2026-04-23 05:15 | 67.32275 | -14.71988 | 37375 ft | 466 kts | 122° |
| 2026-04-23 05:16 | 67.28741 | -14.57967 | 37380 ft | 466 kts | 123° |
| 2026-04-23 05:16 | 67.25176 | -14.43915 | 37381 ft | 465 kts | 123° |
| 2026-04-23 05:17 | 67.21629 | -14.30021 | 37383 ft | 464 kts | 123° |
| 2026-04-23 05:17 | 67.18075 | -14.16190 | 37388 ft | 463 kts | 123° |
| 2026-04-23 05:18 | 67.14528 | -14.02470 | 37383 ft | 462 kts | 123° |
| 2026-04-23 05:18 | 67.10960 | -13.88757 | 37378 ft | 461 kts | 123° |
| 2026-04-23 05:19 | 67.07381 | -13.75086 | 37381 ft | 461 kts | 123° |
| 2026-04-23 05:19 | 67.03795 | -13.61472 | 37384 ft | 460 kts | 123° |
| 2026-04-23 05:20 | 67.00204 | -13.47925 | 37384 ft | 460 kts | 123° |
| 2026-04-23 05:20 | 66.96607 | -13.34438 | 37381 ft | 460 kts | 123° |
| 2026-04-23 05:21 | 66.92989 | -13.20955 | 37386 ft | 459 kts | 123° |
| 2026-04-23 05:21 | 66.89374 | -13.07565 | 37389 ft | 459 kts | 124° |
| 2026-04-23 05:22 | 66.85738 | -12.94176 | 37387 ft | 459 kts | 124° |
| 2026-04-23 05:22 | 66.82121 | -12.80942 | 37391 ft | 459 kts | 124° |
| 2026-04-23 05:23 | 66.78466 | -12.67646 | 37391 ft | 459 kts | 124° |
| 2026-04-23 05:23 | 66.74806 | -12.54414 | 37392 ft | 459 kts | 124° |
| 2026-04-23 05:24 | 66.71135 | -12.41220 | 37395 ft | 459 kts | 124° |
| 2026-04-23 05:24 | 66.67449 | -12.28052 | 37393 ft | 459 kts | 124° |
| 2026-04-23 05:25 | 66.63754 | -12.14928 | 37396 ft | 459 kts | 124° |
| 2026-04-23 05:25 | 66.60043 | -12.01827 | 37401 ft | 459 kts | 124° |
| 2026-04-23 05:26 | 66.56324 | -11.88777 | 37399 ft | 459 kts | 124° |
| 2026-04-23 05:26 | 66.52599 | -11.75782 | 37398 ft | 459 kts | 124° |
| 2026-04-23 05:27 | 66.48885 | -11.62900 | 37403 ft | 459 kts | 125° |
| 2026-04-23 05:27 | 66.45131 | -11.49954 | 37399 ft | 458 kts | 125° |
| 2026-04-23 05:28 | 66.41379 | -11.37094 | 37402 ft | 458 kts | 125° |
| 2026-04-23 05:28 | 66.37607 | -11.24237 | 37402 ft | 458 kts | 125° |
| 2026-04-23 05:29 | 66.33841 | -11.11475 | 37405 ft | 459 kts | 125° |
| 2026-04-23 05:29 | 66.30056 | -10.98725 | 37407 ft | 459 kts | 126° |
| 2026-04-23 05:30 | 66.26254 | -10.85990 | 37407 ft | 459 kts | 126° |
| 2026-04-23 05:30 | 66.22457 | -10.73344 | 37410 ft | 459 kts | 126° |
| 2026-04-23 05:31 | 66.19257 | -10.62742 | 37413 ft | 459 kts | 126° |
| 2026-04-23 05:31 | 66.15447 | -10.50187 | 37414 ft | 459 kts | 126° |
| 2026-04-23 05:32 | 66.11605 | -10.37594 | 37414 ft | 459 kts | 126° |
| 2026-04-23 05:32 | 66.07753 | -10.25013 | 37413 ft | 459 kts | 126° |
| 2026-04-23 05:33 | 66.03913 | -10.12522 | 37415 ft | 459 kts | 126° |
| 2026-04-23 05:33 | 65.99956 | -10.00149 | 37413 ft | 459 kts | 129° |
| 2026-04-23 05:34 | 65.95618 | -9.88717 | 37414 ft | 459 kts | 134° |
| 2026-04-23 05:34 | 65.91164 | -9.77546 | 37421 ft | 459 kts | 133° |
| 2026-04-23 05:35 | 65.86748 | -9.66312 | 37423 ft | 458 kts | 133° |
| 2026-04-23 05:35 | 65.82343 | -9.55134 | 37424 ft | 458 kts | 133° |
| 2026-04-23 05:36 | 65.77918 | -9.43973 | 37423 ft | 458 kts | 133° |
| 2026-04-23 05:36 | 65.73490 | -9.32868 | 37425 ft | 457 kts | 133° |
| 2026-04-23 05:37 | 65.69042 | -9.21793 | 37425 ft | 457 kts | 133° |
| 2026-04-23 05:37 | 65.64604 | -9.10814 | 37415 ft | 456 kts | 134° |
| 2026-04-23 05:38 | 65.60164 | -8.99890 | 37427 ft | 456 kts | 134° |
| 2026-04-23 05:38 | 65.55722 | -8.89015 | 37420 ft | 455 kts | 134° |
| 2026-04-23 05:39 | 65.51248 | -8.78119 | 37420 ft | 455 kts | 134° |
| 2026-04-23 05:39 | 65.46796 | -8.67331 | 37412 ft | 455 kts | 134° |
| 2026-04-23 05:40 | 65.42337 | -8.56582 | 37430 ft | 454 kts | 134° |
| 2026-04-23 05:40 | 65.37877 | -8.45887 | 37415 ft | 454 kts | 134° |
| 2026-04-23 05:41 | 65.33419 | -8.35249 | 37411 ft | 454 kts | 134° |
| 2026-04-23 05:41 | 65.28948 | -8.24634 | 37412 ft | 453 kts | 135° |
| 2026-04-23 05:42 | 65.24464 | -8.14044 | 37420 ft | 453 kts | 135° |
| 2026-04-23 05:42 | 65.19972 | -8.03485 | 37441 ft | 453 kts | 135° |
| 2026-04-23 05:43 | 65.15495 | -7.93018 | 37446 ft | 452 kts | 135° |
| 2026-04-23 05:43 | 65.11005 | -7.82571 | 37451 ft | 452 kts | 135° |
| 2026-04-23 05:44 | 65.06509 | -7.72162 | 37448 ft | 452 kts | 135° |
| 2026-04-23 05:44 | 65.02003 | -7.61781 | 37431 ft | 451 kts | 135° |
| 2026-04-23 05:45 | 64.97492 | -7.51441 | 37434 ft | 451 kts | 135° |
| 2026-04-23 05:45 | 64.92988 | -7.41167 | 37433 ft | 451 kts | 135° |
| 2026-04-23 05:46 | 64.88482 | -7.30939 | 37436 ft | 451 kts | 136° |
| 2026-04-23 05:46 | 64.83942 | -7.20686 | 37442 ft | 451 kts | 136° |
| 2026-04-23 05:47 | 64.79435 | -7.10556 | 37441 ft | 450 kts | 136° |
| 2026-04-23 05:47 | 64.74904 | -7.00422 | 37438 ft | 450 kts | 136° |
| 2026-04-23 05:48 | 64.70378 | -6.90349 | 37438 ft | 450 kts | 136° |
| 2026-04-23 05:48 | 64.65837 | -6.80290 | 37438 ft | 450 kts | 136° |
| 2026-04-23 05:49 | 64.61285 | -6.70258 | 37440 ft | 450 kts | 136° |
| 2026-04-23 05:49 | 64.56724 | -6.60252 | 37442 ft | 450 kts | 136° |
| 2026-04-23 05:50 | 64.52165 | -6.50300 | 37445 ft | 450 kts | 136° |
| 2026-04-23 05:50 | 64.47597 | -6.40375 | 37447 ft | 451 kts | 137° |
| 2026-04-23 05:51 | 64.43021 | -6.30481 | 37447 ft | 451 kts | 137° |
| 2026-04-23 05:51 | 64.38436 | -6.20616 | 37452 ft | 451 kts | 137° |
| 2026-04-23 05:52 | 64.33845 | -6.10784 | 37450 ft | 451 kts | 137° |
| 2026-04-23 05:52 | 64.29238 | -6.00965 | 37449 ft | 451 kts | 137° |
| 2026-04-23 05:53 | 64.24634 | -5.91198 | 37452 ft | 451 kts | 137° |
| 2026-04-23 05:53 | 64.20014 | -5.81444 | 37454 ft | 451 kts | 137° |
| 2026-04-23 05:54 | 64.15391 | -5.71730 | 37454 ft | 451 kts | 137° |
| 2026-04-23 05:54 | 64.10757 | -5.62040 | 37452 ft | 452 kts | 138° |
| 2026-04-23 05:55 | 64.06109 | -5.52365 | 37456 ft | 452 kts | 138° |
| 2026-04-23 05:55 | 64.01455 | -5.42723 | 37455 ft | 452 kts | 138° |
| 2026-04-23 05:56 | 63.96795 | -5.33115 | 37460 ft | 452 kts | 138° |
| 2026-04-23 05:56 | 63.92132 | -5.23545 | 37463 ft | 453 kts | 138° |
| 2026-04-23 05:57 | 63.87459 | -5.13999 | 37464 ft | 453 kts | 138° |
| 2026-04-23 05:57 | 63.82765 | -5.04455 | 37464 ft | 453 kts | 139° |
| 2026-04-23 05:58 | 63.78089 | -4.94991 | 37459 ft | 453 kts | 139° |
| 2026-04-23 05:58 | 63.73382 | -4.85511 | 37464 ft | 454 kts | 139° |
| 2026-04-23 05:59 | 63.68633 | -4.75988 | 37463 ft | 454 kts | 139° |
| 2026-04-23 05:59 | 63.63915 | -4.66573 | 37467 ft | 455 kts | 139° |
| 2026-04-23 06:00 | 63.59189 | -4.57185 | 37484 ft | 455 kts | 139° |
| 2026-04-23 06:00 | 63.54424 | -4.47764 | 37483 ft | 456 kts | 139° |
| 2026-04-23 06:01 | 63.49667 | -4.38401 | 37466 ft | 456 kts | 139° |
| 2026-04-23 06:01 | 63.44895 | -4.29052 | 37474 ft | 456 kts | 139° |
| 2026-04-23 06:02 | 63.40104 | -4.19709 | 37466 ft | 457 kts | 140° |
| 2026-04-23 06:02 | 63.35332 | -4.10447 | 37473 ft | 458 kts | 140° |
| 2026-04-23 06:03 | 63.30519 | -4.01146 | 37487 ft | 458 kts | 140° |
| 2026-04-23 06:03 | 63.25690 | -3.91859 | 37487 ft | 459 kts | 140° |
| 2026-04-23 06:04 | 63.20859 | -3.82610 | 37497 ft | 459 kts | 140° |
| 2026-04-23 06:04 | 63.16000 | -3.73350 | 37489 ft | 460 kts | 140° |
| 2026-04-23 06:05 | 63.11154 | -3.64157 | 37485 ft | 460 kts | 140° |
| 2026-04-23 06:05 | 63.06278 | -3.54948 | 37481 ft | 461 kts | 140° |
| 2026-04-23 06:06 | 63.01397 | -3.45773 | 37477 ft | 461 kts | 141° |
| 2026-04-23 06:06 | 62.96510 | -3.36628 | 37486 ft | 462 kts | 141° |
| 2026-04-23 06:07 | 62.91641 | -3.27557 | 37492 ft | 462 kts | 141° |
| 2026-04-23 06:07 | 62.86718 | -3.18429 | 37493 ft | 462 kts | 141° |
| 2026-04-23 06:08 | 62.81803 | -3.09357 | 37482 ft | 463 kts | 141° |
| 2026-04-23 06:08 | 62.76874 | -3.00299 | 37485 ft | 464 kts | 141° |
| 2026-04-23 06:09 | 62.71909 | -2.91217 | 37486 ft | 464 kts | 141° |
| 2026-04-23 06:09 | 62.66949 | -2.82185 | 37490 ft | 465 kts | 141° |
| 2026-04-23 06:10 | 62.61980 | -2.73178 | 37495 ft | 466 kts | 142° |
| 2026-04-23 06:10 | 62.57002 | -2.64193 | 37495 ft | 467 kts | 142° |
| 2026-04-23 06:11 | 62.52015 | -2.55234 | 37498 ft | 467 kts | 142° |
| 2026-04-23 06:11 | 62.47000 | -2.46266 | 37500 ft | 467 kts | 142° |
| 2026-04-23 06:12 | 62.42001 | -2.37365 | 37495 ft | 468 kts | 142° |
| 2026-04-23 06:12 | 62.34439 | -2.23976 | 37501 ft | 468 kts | 142° |
| 2026-04-23 06:13 | 62.29426 | -2.15150 | 37498 ft | 468 kts | 142° |
| 2026-04-23 06:13 | 62.24371 | -2.06291 | 37502 ft | 469 kts | 142° |
| 2026-04-23 06:14 | 62.19299 | -1.97440 | 37507 ft | 469 kts | 143° |
| 2026-04-23 06:14 | 62.14262 | -1.88689 | 37510 ft | 469 kts | 143° |
| 2026-04-23 06:15 | 62.09198 | -1.79932 | 37509 ft | 469 kts | 143° |
| 2026-04-23 06:15 | 62.04126 | -1.71199 | 37510 ft | 469 kts | 143° |
| 2026-04-23 06:16 | 61.99020 | -1.62446 | 37507 ft | 469 kts | 143° |
| 2026-04-23 06:16 | 61.93936 | -1.53769 | 37509 ft | 469 kts | 143° |
| 2026-04-23 06:17 | 61.88849 | -1.45125 | 37514 ft | 469 kts | 143° |
| 2026-04-23 06:17 | 61.83749 | -1.36497 | 37515 ft | 469 kts | 143° |
| 2026-04-23 06:18 | 61.78676 | -1.27953 | 37520 ft | 469 kts | 143° |
| 2026-04-23 06:18 | 61.73582 | -1.19410 | 37519 ft | 468 kts | 144° |
| 2026-04-23 06:19 | 61.68471 | -1.10874 | 37518 ft | 468 kts | 144° |
| 2026-04-23 06:19 | 61.63358 | -1.02375 | 37520 ft | 468 kts | 144° |
| 2026-04-23 06:20 | 61.58254 | -0.93926 | 37519 ft | 467 kts | 144° |
| 2026-04-23 06:20 | 61.53149 | -0.85511 | 37519 ft | 467 kts | 144° |
| 2026-04-23 06:21 | 61.48057 | -0.77155 | 37521 ft | 466 kts | 144° |
| 2026-04-23 06:21 | 61.42961 | -0.68827 | 37518 ft | 466 kts | 144° |
| 2026-04-23 06:22 | 61.37855 | -0.60519 | 37521 ft | 465 kts | 144° |
| 2026-04-23 06:22 | 61.32738 | -0.52227 | 37521 ft | 465 kts | 144° |
| 2026-04-23 06:23 | 61.27631 | -0.43987 | 37521 ft | 465 kts | 145° |
| 2026-04-23 06:23 | 61.22536 | -0.35799 | 37523 ft | 464 kts | 145° |
| 2026-04-23 06:24 | 61.17427 | -0.27612 | 37523 ft | 464 kts | 145° |
| 2026-04-23 06:24 | 61.12305 | -0.19430 | 37524 ft | 464 kts | 145° |
| 2026-04-23 06:25 | 61.07207 | -0.11321 | 37524 ft | 463 kts | 145° |
| 2026-04-23 06:25 | 61.02117 | -0.03259 | 37521 ft | 463 kts | 145° |
| 2026-04-23 06:26 | 60.97086 | 0.05010 | 37518 ft | 464 kts | 141° |
| 2026-04-23 06:26 | 60.92363 | 0.14118 | 37517 ft | 465 kts | 140° |
| 2026-04-23 06:27 | 60.87625 | 0.23204 | 37517 ft | 465 kts | 140° |
| 2026-04-23 06:27 | 60.82895 | 0.32096 | 37525 ft | 465 kts | 141° |
| 2026-04-23 06:28 | 60.78082 | 0.41070 | 37527 ft | 465 kts | 141° |
| 2026-04-23 06:28 | 60.73313 | 0.49913 | 37526 ft | 465 kts | 141° |
| 2026-04-23 06:29 | 60.68523 | 0.58749 | 37527 ft | 464 kts | 141° |
| 2026-04-23 06:29 | 60.63730 | 0.67552 | 37527 ft | 464 kts | 141° |
| 2026-04-23 06:30 | 60.58941 | 0.76312 | 37528 ft | 464 kts | 141° |
| 2026-04-23 06:30 | 60.54146 | 0.85048 | 37527 ft | 463 kts | 141° |
| 2026-04-23 06:31 | 60.49330 | 0.93784 | 37527 ft | 462 kts | 142° |
| 2026-04-23 06:31 | 60.44551 | 1.02418 | 37526 ft | 462 kts | 142° |
| 2026-04-23 06:32 | 60.40561 | 1.09598 | 37525 ft | 461 kts | 142° |
| 2026-04-23 06:32 | 60.35765 | 1.18198 | 37524 ft | 460 kts | 142° |
| 2026-04-23 06:33 | 60.30171 | 1.28184 | 37514 ft | 460 kts | 142° |
| 2026-04-23 06:33 | 60.26176 | 1.35286 | 37535 ft | 459 kts | 142° |
| 2026-04-23 06:34 | 60.21403 | 1.43741 | 37535 ft | 458 kts | 142° |
| 2026-04-23 06:34 | 60.16618 | 1.52180 | 37533 ft | 458 kts | 142° |
| 2026-04-23 06:35 | 60.11828 | 1.60597 | 37532 ft | 458 kts | 142° |
| 2026-04-23 06:35 | 60.07029 | 1.68995 | 37527 ft | 457 kts | 142° |
| 2026-04-23 06:36 | 60.02227 | 1.77365 | 37521 ft | 457 kts | 142° |
| 2026-04-23 06:36 | 59.97447 | 1.85663 | 37516 ft | 457 kts | 142° |
| 2026-04-23 06:37 | 59.92611 | 1.94024 | 37515 ft | 457 kts | 142° |
| 2026-04-23 06:37 | 59.87794 | 2.02319 | 37515 ft | 457 kts | 142° |
| 2026-04-23 06:38 | 59.83003 | 2.10537 | 37514 ft | 457 kts | 142° |
| 2026-04-23 06:38 | 59.78194 | 2.18755 | 37505 ft | 457 kts | 142° |
| 2026-04-23 06:39 | 59.73375 | 2.26955 | 37502 ft | 457 kts | 142° |
| 2026-04-23 06:39 | 59.68530 | 2.35168 | 37504 ft | 457 kts | 142° |
| 2026-04-23 06:40 | 59.63723 | 2.43286 | 37495 ft | 457 kts | 142° |
| 2026-04-23 06:40 | 59.58856 | 2.51470 | 37496 ft | 457 kts | 142° |
| 2026-04-23 06:41 | 59.54023 | 2.59567 | 37492 ft | 457 kts | 142° |
| 2026-04-23 06:41 | 59.49198 | 2.67619 | 37488 ft | 457 kts | 142° |
| 2026-04-23 06:42 | 59.44336 | 2.75702 | 37487 ft | 457 kts | 142° |
| 2026-04-23 06:42 | 59.39468 | 2.83762 | 37492 ft | 457 kts | 143° |
| 2026-04-23 06:43 | 59.34595 | 2.91798 | 37492 ft | 458 kts | 143° |
| 2026-04-23 06:43 | 59.29741 | 2.99774 | 37493 ft | 458 kts | 143° |
| 2026-04-23 06:44 | 59.24843 | 3.07791 | 37495 ft | 458 kts | 143° |
| 2026-04-23 06:44 | 59.19970 | 3.15734 | 37494 ft | 458 kts | 143° |
| 2026-04-23 06:45 | 59.15041 | 3.23740 | 37495 ft | 459 kts | 143° |
| 2026-04-23 06:45 | 59.10151 | 3.31651 | 37488 ft | 459 kts | 143° |
| 2026-04-23 06:46 | 59.05234 | 3.39575 | 37485 ft | 459 kts | 143° |
| 2026-04-23 06:46 | 59.00325 | 3.47456 | 37479 ft | 460 kts | 143° |
| 2026-04-23 06:47 | 58.95384 | 3.55358 | 37481 ft | 460 kts | 143° |
| 2026-04-23 06:47 | 58.90420 | 3.63267 | 37478 ft | 460 kts | 143° |
| 2026-04-23 06:48 | 58.85473 | 3.71117 | 37484 ft | 461 kts | 143° |
| 2026-04-23 06:48 | 58.80544 | 3.78910 | 37476 ft | 461 kts | 143° |
| 2026-04-23 06:49 | 58.75577 | 3.86733 | 37473 ft | 461 kts | 143° |
| 2026-04-23 06:49 | 58.70600 | 3.94543 | 37464 ft | 461 kts | 143° |
| 2026-04-23 06:50 | 58.65634 | 4.02306 | 37461 ft | 461 kts | 143° |
| 2026-04-23 06:50 | 58.60664 | 4.10044 | 37464 ft | 461 kts | 143° |
| 2026-04-23 06:51 | 58.55679 | 4.17777 | 37460 ft | 461 kts | 143° |
| 2026-04-23 06:51 | 58.50711 | 4.25456 | 37458 ft | 461 kts | 143° |
| 2026-04-23 06:52 | 58.45726 | 4.33130 | 37463 ft | 461 kts | 143° |
| 2026-04-23 06:52 | 58.40733 | 4.40789 | 37451 ft | 460 kts | 143° |
| 2026-04-23 06:53 | 58.35726 | 4.48441 | 37444 ft | 460 kts | 143° |
| 2026-04-23 06:53 | 58.30722 | 4.56059 | 37445 ft | 460 kts | 143° |
| 2026-04-23 06:54 | 58.25744 | 4.63610 | 37435 ft | 460 kts | 143° |
| 2026-04-23 06:54 | 58.20738 | 4.71175 | 37433 ft | 459 kts | 143° |
| 2026-04-23 06:55 | 58.15746 | 4.78690 | 37427 ft | 459 kts | 143° |
| 2026-04-23 06:55 | 58.10742 | 4.86196 | 37430 ft | 459 kts | 143° |
| 2026-04-23 06:56 | 58.05738 | 4.93674 | 37411 ft | 459 kts | 143° |
| 2026-04-23 06:56 | 58.00726 | 5.01137 | 37431 ft | 458 kts | 143° |
| 2026-04-23 06:57 | 57.95725 | 5.08557 | 37413 ft | 458 kts | 144° |
| 2026-04-23 06:57 | 57.90714 | 5.15964 | 37413 ft | 458 kts | 143° |
| 2026-04-23 06:58 | 57.85706 | 5.23340 | 37423 ft | 457 kts | 144° |
| 2026-04-23 06:58 | 57.80700 | 5.30686 | 37418 ft | 457 kts | 143° |
| 2026-04-23 06:59 | 57.75694 | 5.38005 | 37393 ft | 457 kts | 143° |
| 2026-04-23 06:59 | 57.70702 | 5.45278 | 37389 ft | 457 kts | 143° |
| 2026-04-23 07:00 | 57.65699 | 5.52541 | 37380 ft | 456 kts | 144° |
| 2026-04-23 07:00 | 57.60665 | 5.59823 | 37369 ft | 456 kts | 143° |
| 2026-04-23 07:01 | 57.55644 | 5.67060 | 37397 ft | 456 kts | 143° |
| 2026-04-23 07:01 | 57.50619 | 5.74276 | 37390 ft | 456 kts | 143° |
| 2026-04-23 07:02 | 57.45599 | 5.81459 | 37365 ft | 456 kts | 143° |
| 2026-04-23 07:02 | 57.40565 | 5.88637 | 37367 ft | 456 kts | 143° |
| 2026-04-23 07:03 | 57.35563 | 5.95744 | 37380 ft | 456 kts | 143° |
| 2026-04-23 07:03 | 57.30520 | 6.02884 | 37376 ft | 455 kts | 143° |
| 2026-04-23 07:04 | 57.25488 | 6.09983 | 37348 ft | 457 kts | 143° |
| 2026-04-23 07:04 | 57.22944 | 6.13562 | 37598 ft | 461 kts | 143° |
| 2026-04-23 07:04 | 57.20410 | 6.17121 | 38074 ft | 460 kts | 143° |
| 2026-04-23 07:05 | 57.17865 | 6.20692 | 38613 ft | 458 kts | 143° |
| 2026-04-23 07:05 | 57.15319 | 6.24258 | 39087 ft | 457 kts | 143° |
| 2026-04-23 07:05 | 57.12811 | 6.27767 | 39315 ft | 460 kts | 143° |
| 2026-04-23 07:05 | 57.10225 | 6.31380 | 39351 ft | 464 kts | 143° |
| 2026-04-23 07:06 | 57.05125 | 6.38491 | 39361 ft | 456 kts | 143° |
| 2026-04-23 07:06 | 57.00128 | 6.45424 | 39367 ft | 451 kts | 143° |
| 2026-04-23 07:07 | 56.95056 | 6.52330 | 39341 ft | 455 kts | 143° |
| 2026-04-23 07:07 | 56.89986 | 6.59367 | 39340 ft | 458 kts | 143° |
| 2026-04-23 07:08 | 56.84899 | 6.66370 | 39341 ft | 461 kts | 143° |
| 2026-04-23 07:08 | 56.79764 | 6.73388 | 39360 ft | 460 kts | 143° |
| 2026-04-23 07:09 | 56.74662 | 6.80335 | 39355 ft | 461 kts | 143° |
| 2026-04-23 07:09 | 56.69525 | 6.87304 | 39335 ft | 460 kts | 143° |
| 2026-04-23 07:10 | 56.64404 | 6.94228 | 39330 ft | 458 kts | 143° |
| 2026-04-23 07:10 | 56.59244 | 7.01182 | 39336 ft | 465 kts | 143° |
| 2026-04-23 07:11 | 56.54052 | 7.08153 | 39336 ft | 463 kts | 143° |
| 2026-04-23 07:12 | 56.46349 | 7.18450 | 39332 ft | 459 kts | 143° |
| 2026-04-23 07:12 | 56.41188 | 7.25321 | 39330 ft | 462 kts | 143° |
| 2026-04-23 07:13 | 56.36001 | 7.32202 | 39329 ft | 460 kts | 143° |
| 2026-04-23 07:13 | 56.30870 | 7.38986 | 39322 ft | 459 kts | 143° |
| 2026-04-23 07:14 | 56.25705 | 7.45790 | 39349 ft | 462 kts | 143° |
| 2026-04-23 07:14 | 56.20511 | 7.52613 | 39352 ft | 463 kts | 143° |
| 2026-04-23 07:15 | 56.15296 | 7.59440 | 39354 ft | 465 kts | 143° |
| 2026-04-23 07:15 | 56.10083 | 7.66240 | 39353 ft | 465 kts | 143° |
| 2026-04-23 07:16 | 56.04858 | 7.73033 | 39333 ft | 465 kts | 143° |
| 2026-04-23 07:16 | 55.99631 | 7.79805 | 39332 ft | 465 kts | 143° |
| 2026-04-23 07:17 | 55.94388 | 7.86574 | 39332 ft | 464 kts | 143° |
| 2026-04-23 07:17 | 55.89144 | 7.93322 | 39332 ft | 464 kts | 143° |
| 2026-04-23 07:18 | 55.83913 | 8.00031 | 39327 ft | 464 kts | 143° |
| 2026-04-23 07:18 | 55.78681 | 8.06710 | 39327 ft | 464 kts | 143° |
| 2026-04-23 07:19 | 55.73434 | 8.13385 | 39327 ft | 464 kts | 143° |
| 2026-04-23 07:19 | 55.68182 | 8.20047 | 39318 ft | 465 kts | 143° |
| 2026-04-23 07:20 | 55.62908 | 8.26645 | 39317 ft | 465 kts | 145° |
| 2026-04-23 07:20 | 55.57228 | 8.32171 | 39320 ft | 468 kts | 154° |
| 2026-04-23 07:21 | 55.51163 | 8.36429 | 39316 ft | 469 kts | 156° |
| 2026-04-23 07:21 | 55.45084 | 8.40613 | 39323 ft | 469 kts | 156° |
| 2026-04-23 07:22 | 55.39054 | 8.44788 | 39322 ft | 469 kts | 156° |
| 2026-04-23 07:22 | 55.32978 | 8.48983 | 39326 ft | 469 kts | 156° |
| 2026-04-23 07:23 | 55.26905 | 8.53162 | 39324 ft | 469 kts | 156° |
| 2026-04-23 07:23 | 55.20804 | 8.57346 | 39327 ft | 469 kts | 156° |
| 2026-04-23 07:24 | 55.14761 | 8.61477 | 39336 ft | 469 kts | 156° |
| 2026-04-23 07:24 | 55.08698 | 8.65608 | 39333 ft | 468 kts | 156° |
| 2026-04-23 07:25 | 55.02600 | 8.69747 | 39336 ft | 468 kts | 156° |
| 2026-04-23 07:25 | 54.96531 | 8.73851 | 39330 ft | 468 kts | 156° |
| 2026-04-23 07:26 | 54.90460 | 8.77944 | 39330 ft | 468 kts | 156° |
| 2026-04-23 07:26 | 54.84373 | 8.81981 | 39326 ft | 468 kts | 156° |
| 2026-04-23 07:27 | 54.78282 | 8.85968 | 39322 ft | 469 kts | 156° |
| 2026-04-23 07:27 | 54.72182 | 8.89957 | 39325 ft | 469 kts | 156° |
| 2026-04-23 07:28 | 54.66109 | 8.93921 | 39327 ft | 469 kts | 156° |
| 2026-04-23 07:28 | 54.60015 | 8.97885 | 39332 ft | 469 kts | 156° |
| 2026-04-23 07:29 | 54.53895 | 9.01854 | 39333 ft | 469 kts | 156° |
| 2026-04-23 07:29 | 54.47773 | 9.05811 | 39331 ft | 469 kts | 156° |
| 2026-04-23 07:30 | 54.41657 | 9.09752 | 39324 ft | 470 kts | 156° |
| 2026-04-23 07:30 | 54.35527 | 9.13690 | 39322 ft | 470 kts | 156° |
| 2026-04-23 07:31 | 54.29409 | 9.17607 | 39324 ft | 470 kts | 156° |
| 2026-04-23 07:31 | 54.23319 | 9.21494 | 39325 ft | 470 kts | 156° |
| 2026-04-23 07:32 | 54.17187 | 9.25395 | 39324 ft | 470 kts | 156° |
| 2026-04-23 07:32 | 54.11061 | 9.29280 | 39320 ft | 470 kts | 156° |
| 2026-04-23 07:33 | 54.04922 | 9.33161 | 39321 ft | 471 kts | 156° |
| 2026-04-23 07:33 | 53.98786 | 9.37028 | 39326 ft | 471 kts | 156° |
| 2026-04-23 07:34 | 53.92658 | 9.40877 | 39328 ft | 471 kts | 156° |
| 2026-04-23 07:34 | 53.86487 | 9.44742 | 39330 ft | 471 kts | 156° |
| 2026-04-23 07:35 | 53.80371 | 9.48560 | 39333 ft | 471 kts | 156° |
| 2026-04-23 07:35 | 53.74221 | 9.52388 | 39337 ft | 471 kts | 156° |
| 2026-04-23 07:36 | 53.68071 | 9.56203 | 39343 ft | 471 kts | 156° |
| 2026-04-23 07:36 | 53.62079 | 9.60601 | 39344 ft | 467 kts | 149° |
| 2026-04-23 07:37 | 53.56295 | 9.65645 | 39342 ft | 467 kts | 149° |
| 2026-04-23 07:37 | 53.50521 | 9.70633 | 39345 ft | 468 kts | 149° |
| 2026-04-23 07:38 | 53.44739 | 9.75589 | 39344 ft | 468 kts | 149° |
| 2026-04-23 07:38 | 53.39920 | 9.79705 | 39346 ft | 468 kts | 149° |
| 2026-04-23 07:39 | 53.34102 | 9.84659 | 39342 ft | 468 kts | 149° |
| 2026-04-23 07:39 | 53.28290 | 9.89595 | 39344 ft | 469 kts | 149° |
| 2026-04-23 07:40 | 53.22474 | 9.94518 | 39340 ft | 469 kts | 149° |
| 2026-04-23 07:40 | 53.16648 | 9.99435 | 39343 ft | 469 kts | 149° |
| 2026-04-23 07:41 | 53.10820 | 10.04338 | 39345 ft | 470 kts | 149° |
| 2026-04-23 07:41 | 53.04981 | 10.09235 | 39350 ft | 470 kts | 149° |
| 2026-04-23 07:42 | 52.99149 | 10.14112 | 39344 ft | 470 kts | 149° |
| 2026-04-23 07:42 | 52.93317 | 10.18974 | 39347 ft | 470 kts | 149° |
| 2026-04-23 07:43 | 52.87467 | 10.23836 | 39347 ft | 470 kts | 149° |
| 2026-04-23 07:43 | 52.81616 | 10.28685 | 39348 ft | 471 kts | 149° |
| 2026-04-23 07:44 | 52.75751 | 10.33529 | 39333 ft | 471 kts | 149° |
| 2026-04-23 07:44 | 52.69894 | 10.38353 | 39350 ft | 471 kts | 149° |
| 2026-04-23 07:45 | 52.64028 | 10.43171 | 39351 ft | 471 kts | 149° |
| 2026-04-23 07:45 | 52.58194 | 10.47946 | 39347 ft | 471 kts | 149° |
| 2026-04-23 07:46 | 52.52342 | 10.52723 | 39345 ft | 471 kts | 149° |
| 2026-04-23 07:46 | 52.46458 | 10.57511 | 39364 ft | 471 kts | 149° |
| 2026-04-23 07:47 | 52.40576 | 10.62283 | 39345 ft | 472 kts | 149° |
| 2026-04-23 07:47 | 52.34701 | 10.67036 | 39344 ft | 472 kts | 149° |
| 2026-04-23 07:48 | 52.28827 | 10.71774 | 39352 ft | 472 kts | 149° |
| 2026-04-23 07:48 | 52.22907 | 10.76533 | 39347 ft | 472 kts | 149° |
| 2026-04-23 07:49 | 52.17032 | 10.81243 | 39348 ft | 472 kts | 149° |
| 2026-04-23 07:49 | 52.11150 | 10.85945 | 39342 ft | 473 kts | 149° |
| 2026-04-23 07:50 | 52.05212 | 10.90678 | 39342 ft | 473 kts | 149° |
| 2026-04-23 07:50 | 51.99297 | 10.95378 | 39342 ft | 474 kts | 149° |
| 2026-04-23 07:51 | 51.93365 | 11.00078 | 39329 ft | 474 kts | 149° |
| 2026-04-23 07:51 | 51.87441 | 11.04711 | 39325 ft | 475 kts | 151° |
| 2026-04-23 07:52 | 51.81266 | 11.08478 | 39324 ft | 479 kts | 156° |
| 2026-04-23 07:52 | 51.74985 | 11.12003 | 39324 ft | 479 kts | 156° |
| 2026-04-23 07:53 | 51.68699 | 11.15556 | 39321 ft | 479 kts | 156° |
| 2026-04-23 07:53 | 51.62383 | 11.19121 | 39323 ft | 479 kts | 156° |
| 2026-04-23 07:54 | 51.56082 | 11.22666 | 39322 ft | 479 kts | 156° |
| 2026-04-23 07:54 | 51.49821 | 11.26179 | 39323 ft | 479 kts | 156° |
| 2026-04-23 07:55 | 51.43521 | 11.29703 | 39323 ft | 479 kts | 156° |
| 2026-04-23 07:55 | 51.37221 | 11.33216 | 39321 ft | 479 kts | 156° |
| 2026-04-23 07:56 | 51.30930 | 11.36714 | 39322 ft | 479 kts | 156° |
| 2026-04-23 07:56 | 51.24644 | 11.40200 | 39326 ft | 479 kts | 156° |
| 2026-04-23 07:57 | 51.18366 | 11.43671 | 39327 ft | 479 kts | 156° |
| 2026-04-23 07:57 | 51.12028 | 11.47165 | 39330 ft | 479 kts | 156° |
| 2026-04-23 07:58 | 51.05770 | 11.50605 | 39330 ft | 479 kts | 156° |
| 2026-04-23 07:58 | 50.99472 | 11.54056 | 39323 ft | 479 kts | 156° |
| 2026-04-23 07:59 | 50.93172 | 11.57499 | 39328 ft | 479 kts | 156° |
| 2026-04-23 07:59 | 50.86853 | 11.60943 | 39326 ft | 479 kts | 157° |
| 2026-04-23 08:00 | 50.80544 | 11.64372 | 39323 ft | 479 kts | 157° |
| 2026-04-23 08:00 | 50.74257 | 11.67779 | 39332 ft | 479 kts | 157° |
| 2026-04-23 08:01 | 50.67939 | 11.71192 | 39340 ft | 480 kts | 157° |
| 2026-04-23 08:01 | 50.61637 | 11.74587 | 39334 ft | 480 kts | 157° |
| 2026-04-23 08:02 | 50.55313 | 11.77984 | 39335 ft | 480 kts | 157° |
| 2026-04-23 08:02 | 50.49003 | 11.81365 | 39332 ft | 480 kts | 157° |
| 2026-04-23 08:03 | 50.42809 | 11.85145 | 39325 ft | 477 kts | 152° |
| 2026-04-23 08:03 | 50.36694 | 11.89328 | 39320 ft | 477 kts | 152° |
| 2026-04-23 08:04 | 50.30648 | 11.93427 | 39323 ft | 477 kts | 152° |
| 2026-04-23 08:04 | 50.24564 | 11.97527 | 39322 ft | 476 kts | 152° |
| 2026-04-23 08:05 | 50.18482 | 12.01617 | 39324 ft | 476 kts | 152° |
| 2026-04-23 08:05 | 50.12372 | 12.05717 | 39329 ft | 476 kts | 152° |
| 2026-04-23 08:06 | 50.06276 | 12.09795 | 39333 ft | 477 kts | 152° |
| 2026-04-23 08:06 | 50.04208 | 12.11176 | 39335 ft | 477 kts | 152° |